<?xml version="1.0" encoding="UTF-8" standalone="no" ?>
<gpx xmlns="http://www.topografix.com/GPX/1/1" xmlns:xsi="http://www.w3.org/2001/XMLSchema-instance" xsi:schemaLocation="http://www.topografix.com/GPX/1/1 http://www.topografix.com/GPX/1/1/gpx.xsd" version="1.1" creator="VisuGPX - https://www.visugpx.com">
  <metadata>
    <name>De Berrias à Païolive</name>
    <desc><![CDATA[Une boucle sur les gras et dans le milieu karstique de Païolive réserve natura 2000.
]]></desc>
  </metadata>
  <trk>
    <name><![CDATA[track]]></name>
    <trkseg>
      <trkpt lat="44.37597" lon="4.19837">
        <ele>133</ele>
        <time>2014-06-10T07:58:29Z</time>
      </trkpt>
      <trkpt lat="44.37597" lon="4.19838">
        <ele>133</ele>
        <time>2014-06-10T07:58:56Z</time>
      </trkpt>
      <trkpt lat="44.37599" lon="4.19836">
        <ele>133</ele>
        <time>2014-06-10T07:59:34Z</time>
      </trkpt>
      <trkpt lat="44.37607" lon="4.19834">
        <ele>133</ele>
        <time>2014-06-10T08:00:08Z</time>
      </trkpt>
      <trkpt lat="44.37614" lon="4.19833">
        <ele>133</ele>
        <time>2014-06-10T08:00:22Z</time>
      </trkpt>
      <trkpt lat="44.3764" lon="4.1982">
        <ele>134</ele>
        <time>2014-06-10T08:00:50Z</time>
      </trkpt>
      <trkpt lat="44.37657" lon="4.19806">
        <ele>134</ele>
        <time>2014-06-10T08:01:13Z</time>
      </trkpt>
      <trkpt lat="44.37681" lon="4.19779">
        <ele>134</ele>
        <time>2014-06-10T08:01:40Z</time>
      </trkpt>
      <trkpt lat="44.37683" lon="4.19777">
        <ele>134</ele>
        <time>2014-06-10T08:01:42Z</time>
      </trkpt>
      <trkpt lat="44.37698" lon="4.19751">
        <ele>134</ele>
        <time>2014-06-10T08:02:03Z</time>
      </trkpt>
      <trkpt lat="44.37723" lon="4.1972">
        <ele>133</ele>
        <time>2014-06-10T08:02:33Z</time>
      </trkpt>
      <trkpt lat="44.37743" lon="4.19689">
        <ele>133</ele>
        <time>2014-06-10T08:02:56Z</time>
      </trkpt>
      <trkpt lat="44.37768" lon="4.19656">
        <ele>134</ele>
        <time>2014-06-10T08:03:25Z</time>
      </trkpt>
      <trkpt lat="44.37794" lon="4.19624">
        <ele>134</ele>
        <time>2014-06-10T08:03:53Z</time>
      </trkpt>
      <trkpt lat="44.37813" lon="4.196">
        <ele>135</ele>
        <time>2014-06-10T08:04:14Z</time>
      </trkpt>
      <trkpt lat="44.37826" lon="4.19589">
        <ele>135</ele>
        <time>2014-06-10T08:04:28Z</time>
      </trkpt>
      <trkpt lat="44.37848" lon="4.19562">
        <ele>137</ele>
        <time>2014-06-10T08:04:53Z</time>
      </trkpt>
      <trkpt lat="44.37874" lon="4.19535">
        <ele>139</ele>
        <time>2014-06-10T08:05:21Z</time>
      </trkpt>
      <trkpt lat="44.37905" lon="4.19503">
        <ele>141</ele>
        <time>2014-06-10T08:05:54Z</time>
      </trkpt>
      <trkpt lat="44.37923" lon="4.19465">
        <ele>142</ele>
        <time>2014-06-10T08:06:23Z</time>
      </trkpt>
      <trkpt lat="44.37938" lon="4.19446">
        <ele>143</ele>
        <time>2014-06-10T08:06:37Z</time>
      </trkpt>
      <trkpt lat="44.37946" lon="4.19434">
        <ele>143</ele>
        <time>2014-06-10T08:06:51Z</time>
      </trkpt>
      <trkpt lat="44.37962" lon="4.19424">
        <ele>143</ele>
        <time>2014-06-10T08:07:05Z</time>
      </trkpt>
      <trkpt lat="44.37968" lon="4.19405">
        <ele>144</ele>
        <time>2014-06-10T08:07:21Z</time>
      </trkpt>
      <trkpt lat="44.37966" lon="4.19386">
        <ele>144</ele>
        <time>2014-06-10T08:07:32Z</time>
      </trkpt>
      <trkpt lat="44.37959" lon="4.19354">
        <ele>145</ele>
        <time>2014-06-10T08:07:51Z</time>
      </trkpt>
      <trkpt lat="44.37953" lon="4.19329">
        <ele>145</ele>
        <time>2014-06-10T08:08:06Z</time>
      </trkpt>
      <trkpt lat="44.37946" lon="4.19299">
        <ele>145</ele>
        <time>2014-06-10T08:08:24Z</time>
      </trkpt>
      <trkpt lat="44.37944" lon="4.19267">
        <ele>145</ele>
        <time>2014-06-10T08:08:41Z</time>
      </trkpt>
      <trkpt lat="44.37941" lon="4.19224">
        <ele>146</ele>
        <time>2014-06-10T08:09:09Z</time>
      </trkpt>
      <trkpt lat="44.37935" lon="4.19188">
        <ele>145</ele>
        <time>2014-06-10T08:09:31Z</time>
      </trkpt>
      <trkpt lat="44.37935" lon="4.19173">
        <ele>145</ele>
        <time>2014-06-10T08:09:41Z</time>
      </trkpt>
      <trkpt lat="44.37938" lon="4.19123">
        <ele>144</ele>
        <time>2014-06-10T08:10:10Z</time>
      </trkpt>
      <trkpt lat="44.3794" lon="4.19089">
        <ele>145</ele>
        <time>2014-06-10T08:10:30Z</time>
      </trkpt>
      <trkpt lat="44.37936" lon="4.19038">
        <ele>146</ele>
        <time>2014-06-10T08:11:01Z</time>
      </trkpt>
      <trkpt lat="44.37938" lon="4.19011">
        <ele>146</ele>
        <time>2014-06-10T08:11:16Z</time>
      </trkpt>
      <trkpt lat="44.37939" lon="4.18972">
        <ele>148</ele>
        <time>2014-06-10T08:11:41Z</time>
      </trkpt>
      <trkpt lat="44.37946" lon="4.18944">
        <ele>148</ele>
        <time>2014-06-10T08:11:58Z</time>
      </trkpt>
      <trkpt lat="44.37949" lon="4.18938">
        <ele>153</ele>
        <time>2014-06-10T08:12:04Z</time>
      </trkpt>
      <trkpt lat="44.3795" lon="4.18937">
        <ele>149</ele>
        <time>2014-06-10T08:12:05Z</time>
      </trkpt>
      <trkpt lat="44.37965" lon="4.18925">
        <ele>149</ele>
        <time>2014-06-10T08:12:19Z</time>
      </trkpt>
      <trkpt lat="44.37983" lon="4.18907">
        <ele>151</ele>
        <time>2014-06-10T08:12:39Z</time>
      </trkpt>
      <trkpt lat="44.37999" lon="4.189">
        <ele>152</ele>
        <time>2014-06-10T08:12:53Z</time>
      </trkpt>
      <trkpt lat="44.38019" lon="4.18875">
        <ele>153</ele>
        <time>2014-06-10T08:13:16Z</time>
      </trkpt>
      <trkpt lat="44.38021" lon="4.18866">
        <ele>153</ele>
        <time>2014-06-10T08:13:23Z</time>
      </trkpt>
      <trkpt lat="44.38027" lon="4.18833">
        <ele>152</ele>
        <time>2014-06-10T08:13:43Z</time>
      </trkpt>
      <trkpt lat="44.38039" lon="4.18801">
        <ele>153</ele>
        <time>2014-06-10T08:14:05Z</time>
      </trkpt>
      <trkpt lat="44.3804" lon="4.18787">
        <ele>154</ele>
        <time>2014-06-10T08:14:14Z</time>
      </trkpt>
      <trkpt lat="44.38044" lon="4.18776">
        <ele>154</ele>
        <time>2014-06-10T08:14:22Z</time>
      </trkpt>
      <trkpt lat="44.38052" lon="4.1875">
        <ele>156</ele>
        <time>2014-06-10T08:14:41Z</time>
      </trkpt>
      <trkpt lat="44.38062" lon="4.18715">
        <ele>158</ele>
        <time>2014-06-10T08:15:07Z</time>
      </trkpt>
      <trkpt lat="44.38068" lon="4.18691">
        <ele>159</ele>
        <time>2014-06-10T08:15:24Z</time>
      </trkpt>
      <trkpt lat="44.38067" lon="4.18668">
        <ele>159</ele>
        <time>2014-06-10T08:15:40Z</time>
      </trkpt>
      <trkpt lat="44.38065" lon="4.18664">
        <ele>159</ele>
        <time>2014-06-10T08:15:53Z</time>
      </trkpt>
      <trkpt lat="44.38064" lon="4.18663">
        <ele>159</ele>
        <time>2014-06-10T08:15:54Z</time>
      </trkpt>
      <trkpt lat="44.38055" lon="4.18643">
        <ele>159</ele>
        <time>2014-06-10T08:16:09Z</time>
      </trkpt>
      <trkpt lat="44.38031" lon="4.18599">
        <ele>158</ele>
        <time>2014-06-10T08:16:41Z</time>
      </trkpt>
      <trkpt lat="44.38018" lon="4.18573">
        <ele>158</ele>
        <time>2014-06-10T08:16:59Z</time>
      </trkpt>
      <trkpt lat="44.38009" lon="4.18537">
        <ele>159</ele>
        <time>2014-06-10T08:17:22Z</time>
      </trkpt>
      <trkpt lat="44.38" lon="4.18505">
        <ele>159</ele>
        <time>2014-06-10T08:17:42Z</time>
      </trkpt>
      <trkpt lat="44.37977" lon="4.18459">
        <ele>158</ele>
        <time>2014-06-10T08:18:14Z</time>
      </trkpt>
      <trkpt lat="44.37953" lon="4.18418">
        <ele>157</ele>
        <time>2014-06-10T08:18:45Z</time>
      </trkpt>
      <trkpt lat="44.37934" lon="4.18385">
        <ele>156</ele>
        <time>2014-06-10T08:19:12Z</time>
      </trkpt>
      <trkpt lat="44.37925" lon="4.1836">
        <ele>155</ele>
        <time>2014-06-10T08:19:29Z</time>
      </trkpt>
      <trkpt lat="44.37925" lon="4.18354">
        <ele>155</ele>
        <time>2014-06-10T08:19:33Z</time>
      </trkpt>
      <trkpt lat="44.37916" lon="4.1833">
        <ele>155</ele>
        <time>2014-06-10T08:19:53Z</time>
      </trkpt>
      <trkpt lat="44.37909" lon="4.18307">
        <ele>155</ele>
        <time>2014-06-10T08:20:07Z</time>
      </trkpt>
      <trkpt lat="44.3789" lon="4.18255">
        <ele>155</ele>
        <time>2014-06-10T08:20:43Z</time>
      </trkpt>
      <trkpt lat="44.37874" lon="4.18223">
        <ele>154</ele>
        <time>2014-06-10T08:21:06Z</time>
      </trkpt>
      <trkpt lat="44.37864" lon="4.18201">
        <ele>154</ele>
        <time>2014-06-10T08:21:21Z</time>
      </trkpt>
      <trkpt lat="44.3786" lon="4.18181">
        <ele>154</ele>
        <time>2014-06-10T08:21:35Z</time>
      </trkpt>
      <trkpt lat="44.37859" lon="4.18164">
        <ele>155</ele>
        <time>2014-06-10T08:21:46Z</time>
      </trkpt>
      <trkpt lat="44.37854" lon="4.18155">
        <ele>155</ele>
        <time>2014-06-10T08:21:53Z</time>
      </trkpt>
      <trkpt lat="44.37845" lon="4.18129">
        <ele>155</ele>
        <time>2014-06-10T08:22:11Z</time>
      </trkpt>
      <trkpt lat="44.37838" lon="4.18094">
        <ele>156</ele>
        <time>2014-06-10T08:22:33Z</time>
      </trkpt>
      <trkpt lat="44.37833" lon="4.18048">
        <ele>157</ele>
        <time>2014-06-10T08:23:02Z</time>
      </trkpt>
      <trkpt lat="44.37828" lon="4.1803">
        <ele>158</ele>
        <time>2014-06-10T08:23:13Z</time>
      </trkpt>
      <trkpt lat="44.37822" lon="4.18007">
        <ele>158</ele>
        <time>2014-06-10T08:23:30Z</time>
      </trkpt>
      <trkpt lat="44.37819" lon="4.17994">
        <ele>158</ele>
        <time>2014-06-10T08:23:39Z</time>
      </trkpt>
      <trkpt lat="44.37802" lon="4.17981">
        <ele>158</ele>
        <time>2014-06-10T08:23:54Z</time>
      </trkpt>
      <trkpt lat="44.37785" lon="4.17962">
        <ele>157</ele>
        <time>2014-06-10T08:24:15Z</time>
      </trkpt>
      <trkpt lat="44.37792" lon="4.17954">
        <ele>158</ele>
        <time>2014-06-10T08:24:26Z</time>
      </trkpt>
      <trkpt lat="44.37806" lon="4.17939">
        <ele>159</ele>
        <time>2014-06-10T08:24:40Z</time>
      </trkpt>
      <trkpt lat="44.37806" lon="4.17938">
        <ele>159</ele>
        <time>2014-06-10T08:24:41Z</time>
      </trkpt>
      <trkpt lat="44.37822" lon="4.17923">
        <ele>161</ele>
        <time>2014-06-10T08:25:00Z</time>
      </trkpt>
      <trkpt lat="44.37843" lon="4.17892">
        <ele>162</ele>
        <time>2014-06-10T08:25:28Z</time>
      </trkpt>
      <trkpt lat="44.37856" lon="4.17878">
        <ele>163</ele>
        <time>2014-06-10T08:25:43Z</time>
      </trkpt>
      <trkpt lat="44.37875" lon="4.17852">
        <ele>165</ele>
        <time>2014-06-10T08:26:07Z</time>
      </trkpt>
      <trkpt lat="44.37875" lon="4.17851">
        <ele>165</ele>
        <time>2014-06-10T08:26:08Z</time>
      </trkpt>
      <trkpt lat="44.37898" lon="4.17833">
        <ele>167</ele>
        <time>2014-06-10T08:26:34Z</time>
      </trkpt>
      <trkpt lat="44.3792" lon="4.17815">
        <ele>169</ele>
        <time>2014-06-10T08:27:00Z</time>
      </trkpt>
      <trkpt lat="44.37925" lon="4.17802">
        <ele>169</ele>
        <time>2014-06-10T08:27:30Z</time>
      </trkpt>
      <trkpt lat="44.37926" lon="4.178">
        <ele>170</ele>
        <time>2014-06-10T08:27:52Z</time>
      </trkpt>
      <trkpt lat="44.37933" lon="4.17784">
        <ele>171</ele>
        <time>2014-06-10T08:28:05Z</time>
      </trkpt>
      <trkpt lat="44.37942" lon="4.1776">
        <ele>173</ele>
        <time>2014-06-10T08:28:24Z</time>
      </trkpt>
      <trkpt lat="44.37949" lon="4.17746">
        <ele>174</ele>
        <time>2014-06-10T08:28:36Z</time>
      </trkpt>
      <trkpt lat="44.37956" lon="4.17724">
        <ele>175</ele>
        <time>2014-06-10T08:28:52Z</time>
      </trkpt>
      <trkpt lat="44.37959" lon="4.17713">
        <ele>176</ele>
        <time>2014-06-10T08:29:02Z</time>
      </trkpt>
      <trkpt lat="44.37969" lon="4.17691">
        <ele>177</ele>
        <time>2014-06-10T08:29:19Z</time>
      </trkpt>
      <trkpt lat="44.37971" lon="4.17687">
        <ele>177</ele>
        <time>2014-06-10T08:29:22Z</time>
      </trkpt>
      <trkpt lat="44.37987" lon="4.17665">
        <ele>178</ele>
        <time>2014-06-10T08:29:41Z</time>
      </trkpt>
      <trkpt lat="44.38006" lon="4.17651">
        <ele>179</ele>
        <time>2014-06-10T08:30:02Z</time>
      </trkpt>
      <trkpt lat="44.38009" lon="4.17651">
        <ele>179</ele>
        <time>2014-06-10T08:30:05Z</time>
      </trkpt>
      <trkpt lat="44.3802" lon="4.17648">
        <ele>180</ele>
        <time>2014-06-10T08:30:14Z</time>
      </trkpt>
      <trkpt lat="44.38038" lon="4.17643">
        <ele>182</ele>
        <time>2014-06-10T08:30:30Z</time>
      </trkpt>
      <trkpt lat="44.38064" lon="4.17634">
        <ele>184</ele>
        <time>2014-06-10T08:30:55Z</time>
      </trkpt>
      <trkpt lat="44.38077" lon="4.17624">
        <ele>185</ele>
        <time>2014-06-10T08:31:09Z</time>
      </trkpt>
      <trkpt lat="44.38086" lon="4.1762">
        <ele>186</ele>
        <time>2014-06-10T08:31:18Z</time>
      </trkpt>
      <trkpt lat="44.38094" lon="4.17612">
        <ele>187</ele>
        <time>2014-06-10T08:31:28Z</time>
      </trkpt>
      <trkpt lat="44.38105" lon="4.17601">
        <ele>188</ele>
        <time>2014-06-10T08:31:40Z</time>
      </trkpt>
      <trkpt lat="44.38127" lon="4.17587">
        <ele>190</ele>
        <time>2014-06-10T08:32:04Z</time>
      </trkpt>
      <trkpt lat="44.38146" lon="4.17577">
        <ele>190</ele>
        <time>2014-06-10T08:32:20Z</time>
      </trkpt>
      <trkpt lat="44.38182" lon="4.17569">
        <ele>192</ele>
        <time>2014-06-10T08:32:51Z</time>
      </trkpt>
      <trkpt lat="44.38193" lon="4.17562">
        <ele>193</ele>
        <time>2014-06-10T08:33:04Z</time>
      </trkpt>
      <trkpt lat="44.38216" lon="4.17551">
        <ele>192</ele>
        <time>2014-06-10T08:33:23Z</time>
      </trkpt>
      <trkpt lat="44.38229" lon="4.17547">
        <ele>193</ele>
        <time>2014-06-10T08:33:34Z</time>
      </trkpt>
      <trkpt lat="44.38251" lon="4.17552">
        <ele>195</ele>
        <time>2014-06-10T08:33:56Z</time>
      </trkpt>
      <trkpt lat="44.38279" lon="4.17559">
        <ele>198</ele>
        <time>2014-06-10T08:34:21Z</time>
      </trkpt>
      <trkpt lat="44.38308" lon="4.17568">
        <ele>199</ele>
        <time>2014-06-10T08:34:47Z</time>
      </trkpt>
      <trkpt lat="44.3831" lon="4.17569">
        <ele>199</ele>
        <time>2014-06-10T08:34:50Z</time>
      </trkpt>
      <trkpt lat="44.3833" lon="4.17574">
        <ele>200</ele>
        <time>2014-06-10T08:35:06Z</time>
      </trkpt>
      <trkpt lat="44.3835" lon="4.17563">
        <ele>200</ele>
        <time>2014-06-10T08:35:23Z</time>
      </trkpt>
      <trkpt lat="44.38365" lon="4.17548">
        <ele>199</ele>
        <time>2014-06-10T08:35:45Z</time>
      </trkpt>
      <trkpt lat="44.38366" lon="4.17547">
        <ele>199</ele>
        <time>2014-06-10T08:35:46Z</time>
      </trkpt>
      <trkpt lat="44.38378" lon="4.17524">
        <ele>199</ele>
        <time>2014-06-10T08:36:02Z</time>
      </trkpt>
      <trkpt lat="44.38383" lon="4.17518">
        <ele>200</ele>
        <time>2014-06-10T08:36:09Z</time>
      </trkpt>
      <trkpt lat="44.38396" lon="4.17502">
        <ele>202</ele>
        <time>2014-06-10T08:36:25Z</time>
      </trkpt>
      <trkpt lat="44.38409" lon="4.17498">
        <ele>202</ele>
        <time>2014-06-10T08:36:38Z</time>
      </trkpt>
      <trkpt lat="44.38429" lon="4.17494">
        <ele>203</ele>
        <time>2014-06-10T08:36:59Z</time>
      </trkpt>
      <trkpt lat="44.38444" lon="4.17491">
        <ele>204</ele>
        <time>2014-06-10T08:37:13Z</time>
      </trkpt>
      <trkpt lat="44.38459" lon="4.17494">
        <ele>204</ele>
        <time>2014-06-10T08:37:29Z</time>
      </trkpt>
      <trkpt lat="44.38475" lon="4.17494">
        <ele>205</ele>
        <time>2014-06-10T08:37:43Z</time>
      </trkpt>
      <trkpt lat="44.38507" lon="4.17491">
        <ele>207</ele>
        <time>2014-06-10T08:38:10Z</time>
      </trkpt>
      <trkpt lat="44.38511" lon="4.17491">
        <ele>207</ele>
        <time>2014-06-10T08:38:13Z</time>
      </trkpt>
      <trkpt lat="44.3853" lon="4.1749">
        <ele>208</ele>
        <time>2014-06-10T08:38:30Z</time>
      </trkpt>
      <trkpt lat="44.38549" lon="4.17487">
        <ele>208</ele>
        <time>2014-06-10T08:38:46Z</time>
      </trkpt>
      <trkpt lat="44.38574" lon="4.17483">
        <ele>210</ele>
        <time>2014-06-10T08:39:12Z</time>
      </trkpt>
      <trkpt lat="44.38591" lon="4.17481">
        <ele>211</ele>
        <time>2014-06-10T08:39:26Z</time>
      </trkpt>
      <trkpt lat="44.38606" lon="4.17488">
        <ele>211</ele>
        <time>2014-06-10T08:39:39Z</time>
      </trkpt>
      <trkpt lat="44.38617" lon="4.17485">
        <ele>212</ele>
        <time>2014-06-10T08:39:51Z</time>
      </trkpt>
      <trkpt lat="44.3862" lon="4.17486">
        <ele>212</ele>
        <time>2014-06-10T08:39:55Z</time>
      </trkpt>
      <trkpt lat="44.38632" lon="4.17486">
        <ele>213</ele>
        <time>2014-06-10T08:40:09Z</time>
      </trkpt>
      <trkpt lat="44.38642" lon="4.17469">
        <ele>213</ele>
        <time>2014-06-10T08:40:25Z</time>
      </trkpt>
      <trkpt lat="44.38647" lon="4.1746">
        <ele>213</ele>
        <time>2014-06-10T08:40:39Z</time>
      </trkpt>
      <trkpt lat="44.3865" lon="4.17448">
        <ele>213</ele>
        <time>2014-06-10T08:40:50Z</time>
      </trkpt>
      <trkpt lat="44.38666" lon="4.17403">
        <ele>214</ele>
        <time>2014-06-10T08:41:22Z</time>
      </trkpt>
      <trkpt lat="44.38682" lon="4.17363">
        <ele>213</ele>
        <time>2014-06-10T08:41:53Z</time>
      </trkpt>
      <trkpt lat="44.38702" lon="4.17343">
        <ele>213</ele>
        <time>2014-06-10T08:42:19Z</time>
      </trkpt>
      <trkpt lat="44.38717" lon="4.17343">
        <ele>214</ele>
        <time>2014-06-10T08:42:35Z</time>
      </trkpt>
      <trkpt lat="44.38738" lon="4.17343">
        <ele>216</ele>
        <time>2014-06-10T08:42:57Z</time>
      </trkpt>
      <trkpt lat="44.38762" lon="4.1736">
        <ele>218</ele>
        <time>2014-06-10T08:43:23Z</time>
      </trkpt>
      <trkpt lat="44.38775" lon="4.17369">
        <ele>219</ele>
        <time>2014-06-10T08:43:50Z</time>
      </trkpt>
      <trkpt lat="44.38777" lon="4.1737">
        <ele>220</ele>
        <time>2014-06-10T08:44:32Z</time>
      </trkpt>
      <trkpt lat="44.38782" lon="4.17377">
        <ele>220</ele>
        <time>2014-06-10T08:44:40Z</time>
      </trkpt>
      <trkpt lat="44.38787" lon="4.17385">
        <ele>220</ele>
        <time>2014-06-10T08:44:46Z</time>
      </trkpt>
      <trkpt lat="44.38806" lon="4.17392">
        <ele>220</ele>
        <time>2014-06-10T08:45:03Z</time>
      </trkpt>
      <trkpt lat="44.38809" lon="4.17394">
        <ele>220</ele>
        <time>2014-06-10T08:45:15Z</time>
      </trkpt>
      <trkpt lat="44.38813" lon="4.17395">
        <ele>220</ele>
        <time>2014-06-10T08:47:42Z</time>
      </trkpt>
      <trkpt lat="44.38816" lon="4.17409">
        <ele>220</ele>
        <time>2014-06-10T08:47:56Z</time>
      </trkpt>
      <trkpt lat="44.38818" lon="4.17411">
        <ele>221</ele>
        <time>2014-06-10T08:47:59Z</time>
      </trkpt>
      <trkpt lat="44.38828" lon="4.1743">
        <ele>221</ele>
        <time>2014-06-10T08:48:13Z</time>
      </trkpt>
      <trkpt lat="44.38828" lon="4.17438">
        <ele>221</ele>
        <time>2014-06-10T08:48:20Z</time>
      </trkpt>
      <trkpt lat="44.3883" lon="4.17465">
        <ele>221</ele>
        <time>2014-06-10T08:48:37Z</time>
      </trkpt>
      <trkpt lat="44.38837" lon="4.1747">
        <ele>222</ele>
        <time>2014-06-10T08:48:49Z</time>
      </trkpt>
      <trkpt lat="44.38842" lon="4.17468">
        <ele>222</ele>
        <time>2014-06-10T08:48:56Z</time>
      </trkpt>
      <trkpt lat="44.3885" lon="4.17472">
        <ele>222</ele>
        <time>2014-06-10T08:49:03Z</time>
      </trkpt>
      <trkpt lat="44.38853" lon="4.17484">
        <ele>221</ele>
        <time>2014-06-10T08:49:12Z</time>
      </trkpt>
      <trkpt lat="44.38853" lon="4.17495">
        <ele>220</ele>
        <time>2014-06-10T08:49:19Z</time>
      </trkpt>
      <trkpt lat="44.3886" lon="4.17503">
        <ele>222</ele>
        <time>2014-06-10T08:49:32Z</time>
      </trkpt>
      <trkpt lat="44.38874" lon="4.17512">
        <ele>223</ele>
        <time>2014-06-10T08:49:58Z</time>
      </trkpt>
      <trkpt lat="44.38877" lon="4.17512">
        <ele>223</ele>
        <time>2014-06-10T08:50:14Z</time>
      </trkpt>
      <trkpt lat="44.3888" lon="4.17518">
        <ele>223</ele>
        <time>2014-06-10T08:50:45Z</time>
      </trkpt>
      <trkpt lat="44.3888" lon="4.17531">
        <ele>222</ele>
        <time>2014-06-10T08:50:57Z</time>
      </trkpt>
      <trkpt lat="44.38878" lon="4.17538">
        <ele>222</ele>
        <time>2014-06-10T08:51:03Z</time>
      </trkpt>
      <trkpt lat="44.38869" lon="4.17571">
        <ele>220</ele>
        <time>2014-06-10T08:51:27Z</time>
      </trkpt>
      <trkpt lat="44.38857" lon="4.17612">
        <ele>219</ele>
        <time>2014-06-10T08:51:55Z</time>
      </trkpt>
      <trkpt lat="44.38857" lon="4.17634">
        <ele>219</ele>
        <time>2014-06-10T08:52:10Z</time>
      </trkpt>
      <trkpt lat="44.38854" lon="4.1765">
        <ele>219</ele>
        <time>2014-06-10T08:52:20Z</time>
      </trkpt>
      <trkpt lat="44.38857" lon="4.17674">
        <ele>219</ele>
        <time>2014-06-10T08:52:36Z</time>
      </trkpt>
      <trkpt lat="44.3886" lon="4.17703">
        <ele>219</ele>
        <time>2014-06-10T08:52:54Z</time>
      </trkpt>
      <trkpt lat="44.38871" lon="4.17725">
        <ele>220</ele>
        <time>2014-06-10T08:53:11Z</time>
      </trkpt>
      <trkpt lat="44.3888" lon="4.17758">
        <ele>219</ele>
        <time>2014-06-10T08:53:32Z</time>
      </trkpt>
      <trkpt lat="44.38881" lon="4.1778">
        <ele>219</ele>
        <time>2014-06-10T08:53:46Z</time>
      </trkpt>
      <trkpt lat="44.38886" lon="4.17811">
        <ele>219</ele>
        <time>2014-06-10T08:54:09Z</time>
      </trkpt>
      <trkpt lat="44.38892" lon="4.17842">
        <ele>217</ele>
        <time>2014-06-10T08:54:31Z</time>
      </trkpt>
      <trkpt lat="44.38891" lon="4.17864">
        <ele>216</ele>
        <time>2014-06-10T08:54:44Z</time>
      </trkpt>
      <trkpt lat="44.38892" lon="4.17873">
        <ele>216</ele>
        <time>2014-06-10T08:54:51Z</time>
      </trkpt>
      <trkpt lat="44.38891" lon="4.17877">
        <ele>216</ele>
        <time>2014-06-10T08:54:54Z</time>
      </trkpt>
      <trkpt lat="44.38895" lon="4.17912">
        <ele>217</ele>
        <time>2014-06-10T08:55:15Z</time>
      </trkpt>
      <trkpt lat="44.38898" lon="4.17921">
        <ele>218</ele>
        <time>2014-06-10T08:55:30Z</time>
      </trkpt>
      <trkpt lat="44.38898" lon="4.17922">
        <ele>218</ele>
        <time>2014-06-10T08:55:48Z</time>
      </trkpt>
      <trkpt lat="44.38897" lon="4.1792">
        <ele>218</ele>
        <time>2014-06-10T08:56:22Z</time>
      </trkpt>
      <trkpt lat="44.38899" lon="4.1792">
        <ele>218</ele>
        <time>2014-06-10T08:57:28Z</time>
      </trkpt>
      <trkpt lat="44.38903" lon="4.17914">
        <ele>219</ele>
        <time>2014-06-10T08:57:36Z</time>
      </trkpt>
      <trkpt lat="44.38911" lon="4.17903">
        <ele>219</ele>
        <time>2014-06-10T08:57:45Z</time>
      </trkpt>
      <trkpt lat="44.38928" lon="4.17874">
        <ele>221</ele>
        <time>2014-06-10T08:58:11Z</time>
      </trkpt>
      <trkpt lat="44.38945" lon="4.17856">
        <ele>222</ele>
        <time>2014-06-10T08:58:32Z</time>
      </trkpt>
      <trkpt lat="44.38954" lon="4.17851">
        <ele>224</ele>
        <time>2014-06-10T08:58:43Z</time>
      </trkpt>
      <trkpt lat="44.38974" lon="4.17843">
        <ele>225</ele>
        <time>2014-06-10T08:59:05Z</time>
      </trkpt>
      <trkpt lat="44.38981" lon="4.17843">
        <ele>225</ele>
        <time>2014-06-10T08:59:23Z</time>
      </trkpt>
      <trkpt lat="44.38992" lon="4.17833">
        <ele>223</ele>
        <time>2014-06-10T08:59:45Z</time>
      </trkpt>
      <trkpt lat="44.39009" lon="4.17825">
        <ele>222</ele>
        <time>2014-06-10T08:59:59Z</time>
      </trkpt>
      <trkpt lat="44.3902" lon="4.17809">
        <ele>222</ele>
        <time>2014-06-10T09:00:14Z</time>
      </trkpt>
      <trkpt lat="44.39026" lon="4.17793">
        <ele>223</ele>
        <time>2014-06-10T09:00:28Z</time>
      </trkpt>
      <trkpt lat="44.3903" lon="4.1778">
        <ele>224</ele>
        <time>2014-06-10T09:00:39Z</time>
      </trkpt>
      <trkpt lat="44.39031" lon="4.17748">
        <ele>224</ele>
        <time>2014-06-10T09:01:03Z</time>
      </trkpt>
      <trkpt lat="44.39026" lon="4.1774">
        <ele>223</ele>
        <time>2014-06-10T09:01:11Z</time>
      </trkpt>
      <trkpt lat="44.39009" lon="4.1773">
        <ele>223</ele>
        <time>2014-06-10T09:01:27Z</time>
      </trkpt>
      <trkpt lat="44.39006" lon="4.17728">
        <ele>222</ele>
        <time>2014-06-10T09:01:42Z</time>
      </trkpt>
      <trkpt lat="44.3901" lon="4.1772">
        <ele>221</ele>
        <time>2014-06-10T09:01:50Z</time>
      </trkpt>
      <trkpt lat="44.39014" lon="4.17717">
        <ele>221</ele>
        <time>2014-06-10T09:01:55Z</time>
      </trkpt>
      <trkpt lat="44.39024" lon="4.17716">
        <ele>221</ele>
        <time>2014-06-10T09:02:08Z</time>
      </trkpt>
      <trkpt lat="44.39046" lon="4.17707">
        <ele>219</ele>
        <time>2014-06-10T09:02:33Z</time>
      </trkpt>
      <trkpt lat="44.39048" lon="4.17701">
        <ele>218</ele>
        <time>2014-06-10T09:02:44Z</time>
      </trkpt>
      <trkpt lat="44.39056" lon="4.17697">
        <ele>216</ele>
        <time>2014-06-10T09:02:56Z</time>
      </trkpt>
      <trkpt lat="44.3906" lon="4.17702">
        <ele>215</ele>
        <time>2014-06-10T09:03:08Z</time>
      </trkpt>
      <trkpt lat="44.3907" lon="4.17701">
        <ele>214</ele>
        <time>2014-06-10T09:03:20Z</time>
      </trkpt>
      <trkpt lat="44.39074" lon="4.17698">
        <ele>212</ele>
        <time>2014-06-10T09:03:33Z</time>
      </trkpt>
      <trkpt lat="44.39084" lon="4.17695">
        <ele>210</ele>
        <time>2014-06-10T09:03:49Z</time>
      </trkpt>
      <trkpt lat="44.39094" lon="4.17687">
        <ele>207</ele>
        <time>2014-06-10T09:04:15Z</time>
      </trkpt>
      <trkpt lat="44.39111" lon="4.17686">
        <ele>204</ele>
        <time>2014-06-10T09:04:45Z</time>
      </trkpt>
      <trkpt lat="44.39124" lon="4.17692">
        <ele>204</ele>
        <time>2014-06-10T09:04:59Z</time>
      </trkpt>
      <trkpt lat="44.39126" lon="4.17693">
        <ele>204</ele>
        <time>2014-06-10T09:05:14Z</time>
      </trkpt>
      <trkpt lat="44.39138" lon="4.177">
        <ele>204</ele>
        <time>2014-06-10T09:05:44Z</time>
      </trkpt>
      <trkpt lat="44.39141" lon="4.17708">
        <ele>205</ele>
        <time>2014-06-10T09:05:57Z</time>
      </trkpt>
      <trkpt lat="44.39138" lon="4.1771">
        <ele>207</ele>
        <time>2014-06-10T09:06:13Z</time>
      </trkpt>
      <trkpt lat="44.39132" lon="4.17714">
        <ele>209</ele>
        <time>2014-06-10T09:06:40Z</time>
      </trkpt>
      <trkpt lat="44.39134" lon="4.17718">
        <ele>211</ele>
        <time>2014-06-10T09:07:00Z</time>
      </trkpt>
      <trkpt lat="44.39137" lon="4.17721">
        <ele>211</ele>
        <time>2014-06-10T09:07:14Z</time>
      </trkpt>
      <trkpt lat="44.39146" lon="4.17719">
        <ele>211</ele>
        <time>2014-06-10T09:07:49Z</time>
      </trkpt>
      <trkpt lat="44.39146" lon="4.17722">
        <ele>211</ele>
        <time>2014-06-10T09:08:21Z</time>
      </trkpt>
      <trkpt lat="44.39142" lon="4.17724">
        <ele>211</ele>
        <time>2014-06-10T09:08:41Z</time>
      </trkpt>
      <trkpt lat="44.39135" lon="4.17728">
        <ele>212</ele>
        <time>2014-06-10T09:09:07Z</time>
      </trkpt>
      <trkpt lat="44.39129" lon="4.17734">
        <ele>212</ele>
        <time>2014-06-10T09:09:36Z</time>
      </trkpt>
      <trkpt lat="44.39127" lon="4.17729">
        <ele>213</ele>
        <time>2014-06-10T09:09:52Z</time>
      </trkpt>
      <trkpt lat="44.39129" lon="4.17719">
        <ele>211</ele>
        <time>2014-06-10T09:10:23Z</time>
      </trkpt>
      <trkpt lat="44.39132" lon="4.17726">
        <ele>212</ele>
        <time>2014-06-10T09:10:34Z</time>
      </trkpt>
      <trkpt lat="44.39146" lon="4.17728">
        <ele>211</ele>
        <time>2014-06-10T09:11:00Z</time>
      </trkpt>
      <trkpt lat="44.39153" lon="4.17726">
        <ele>213</ele>
        <time>2014-06-10T09:11:27Z</time>
      </trkpt>
      <trkpt lat="44.39158" lon="4.17733">
        <ele>212</ele>
        <time>2014-06-10T09:12:00Z</time>
      </trkpt>
      <trkpt lat="44.39162" lon="4.17734">
        <ele>213</ele>
        <time>2014-06-10T09:12:30Z</time>
      </trkpt>
      <trkpt lat="44.39164" lon="4.17741">
        <ele>213</ele>
        <time>2014-06-10T09:12:41Z</time>
      </trkpt>
      <trkpt lat="44.39169" lon="4.17754">
        <ele>214</ele>
        <time>2014-06-10T09:13:04Z</time>
      </trkpt>
      <trkpt lat="44.39173" lon="4.17752">
        <ele>214</ele>
        <time>2014-06-10T09:13:16Z</time>
      </trkpt>
      <trkpt lat="44.39175" lon="4.17754">
        <ele>214</ele>
        <time>2014-06-10T09:13:47Z</time>
      </trkpt>
      <trkpt lat="44.39174" lon="4.17751">
        <ele>214</ele>
        <time>2014-06-10T09:14:23Z</time>
      </trkpt>
      <trkpt lat="44.39164" lon="4.17752">
        <ele>214</ele>
        <time>2014-06-10T09:14:50Z</time>
      </trkpt>
      <trkpt lat="44.3916" lon="4.17748">
        <ele>214</ele>
        <time>2014-06-10T09:15:18Z</time>
      </trkpt>
      <trkpt lat="44.39161" lon="4.17743">
        <ele>214</ele>
        <time>2014-06-10T09:16:04Z</time>
      </trkpt>
      <trkpt lat="44.3916" lon="4.17752">
        <ele>214</ele>
        <time>2014-06-10T09:16:20Z</time>
      </trkpt>
      <trkpt lat="44.39162" lon="4.1775">
        <ele>214</ele>
        <time>2014-06-10T09:16:40Z</time>
      </trkpt>
      <trkpt lat="44.39166" lon="4.17747">
        <ele>214</ele>
        <time>2014-06-10T09:17:11Z</time>
      </trkpt>
      <trkpt lat="44.39164" lon="4.1774">
        <ele>213</ele>
        <time>2014-06-10T09:17:35Z</time>
      </trkpt>
      <trkpt lat="44.39167" lon="4.17734">
        <ele>213</ele>
        <time>2014-06-10T09:17:45Z</time>
      </trkpt>
      <trkpt lat="44.39168" lon="4.17728">
        <ele>212</ele>
        <time>2014-06-10T09:18:02Z</time>
      </trkpt>
      <trkpt lat="44.39165" lon="4.17733">
        <ele>213</ele>
        <time>2014-06-10T09:18:30Z</time>
      </trkpt>
      <trkpt lat="44.39163" lon="4.17734">
        <ele>212</ele>
        <time>2014-06-10T09:18:45Z</time>
      </trkpt>
      <trkpt lat="44.39161" lon="4.17725">
        <ele>209</ele>
        <time>2014-06-10T09:19:07Z</time>
      </trkpt>
      <trkpt lat="44.39161" lon="4.17726">
        <ele>209</ele>
        <time>2014-06-10T09:19:24Z</time>
      </trkpt>
      <trkpt lat="44.39161" lon="4.17722">
        <ele>208</ele>
        <time>2014-06-10T09:20:02Z</time>
      </trkpt>
      <trkpt lat="44.39155" lon="4.17709">
        <ele>206</ele>
        <time>2014-06-10T09:20:35Z</time>
      </trkpt>
      <trkpt lat="44.39146" lon="4.17696">
        <ele>205</ele>
        <time>2014-06-10T09:21:02Z</time>
      </trkpt>
      <trkpt lat="44.39148" lon="4.17696">
        <ele>205</ele>
        <time>2014-06-10T09:21:16Z</time>
      </trkpt>
      <trkpt lat="44.39148" lon="4.17696">
        <ele>201</ele>
        <time>2014-06-10T09:21:27Z</time>
      </trkpt>
      <trkpt lat="44.39148" lon="4.17696">
        <ele>208</ele>
        <time>2014-06-10T09:21:28Z</time>
      </trkpt>
      <trkpt lat="44.39149" lon="4.17697">
        <ele>205</ele>
        <time>2014-06-10T09:22:05Z</time>
      </trkpt>
      <trkpt lat="44.39151" lon="4.17699">
        <ele>205</ele>
        <time>2014-06-10T09:22:49Z</time>
      </trkpt>
      <trkpt lat="44.39152" lon="4.17697">
        <ele>205</ele>
        <time>2014-06-10T09:23:53Z</time>
      </trkpt>
      <trkpt lat="44.3915" lon="4.17697">
        <ele>205</ele>
        <time>2014-06-10T09:25:09Z</time>
      </trkpt>
      <trkpt lat="44.39154" lon="4.17698">
        <ele>205</ele>
        <time>2014-06-10T09:25:31Z</time>
      </trkpt>
      <trkpt lat="44.39168" lon="4.17695">
        <ele>208</ele>
        <time>2014-06-10T09:25:59Z</time>
      </trkpt>
      <trkpt lat="44.39175" lon="4.17695">
        <ele>210</ele>
        <time>2014-06-10T09:26:20Z</time>
      </trkpt>
      <trkpt lat="44.3918" lon="4.17696">
        <ele>212</ele>
        <time>2014-06-10T09:26:51Z</time>
      </trkpt>
      <trkpt lat="44.3918" lon="4.17696">
        <ele>212</ele>
        <time>2014-06-10T09:27:10Z</time>
      </trkpt>
      <trkpt lat="44.39181" lon="4.17701">
        <ele>212</ele>
        <time>2014-06-10T09:27:46Z</time>
      </trkpt>
      <trkpt lat="44.39182" lon="4.17697">
        <ele>211</ele>
        <time>2014-06-10T09:28:12Z</time>
      </trkpt>
      <trkpt lat="44.39188" lon="4.1769">
        <ele>213</ele>
        <time>2014-06-10T09:28:25Z</time>
      </trkpt>
      <trkpt lat="44.39204" lon="4.17684">
        <ele>214</ele>
        <time>2014-06-10T09:28:50Z</time>
      </trkpt>
      <trkpt lat="44.39204" lon="4.17684">
        <ele>214</ele>
        <time>2014-06-10T09:29:05Z</time>
      </trkpt>
      <trkpt lat="44.39204" lon="4.17684">
        <ele>215</ele>
        <time>2014-06-10T09:29:52Z</time>
      </trkpt>
      <trkpt lat="44.39199" lon="4.17676">
        <ele>215</ele>
        <time>2014-06-10T09:30:04Z</time>
      </trkpt>
      <trkpt lat="44.39189" lon="4.17673">
        <ele>215</ele>
        <time>2014-06-10T09:30:18Z</time>
      </trkpt>
      <trkpt lat="44.39172" lon="4.17674">
        <ele>213</ele>
        <time>2014-06-10T09:30:43Z</time>
      </trkpt>
      <trkpt lat="44.39158" lon="4.1767">
        <ele>210</ele>
        <time>2014-06-10T09:31:05Z</time>
      </trkpt>
      <trkpt lat="44.39156" lon="4.17666">
        <ele>210</ele>
        <time>2014-06-10T09:31:18Z</time>
      </trkpt>
      <trkpt lat="44.39157" lon="4.17653">
        <ele>211</ele>
        <time>2014-06-10T09:31:33Z</time>
      </trkpt>
      <trkpt lat="44.39152" lon="4.17642">
        <ele>211</ele>
        <time>2014-06-10T09:31:44Z</time>
      </trkpt>
      <trkpt lat="44.39151" lon="4.1764">
        <ele>215</ele>
        <time>2014-06-10T09:31:46Z</time>
      </trkpt>
      <trkpt lat="44.3915" lon="4.17639">
        <ele>211</ele>
        <time>2014-06-10T09:31:47Z</time>
      </trkpt>
      <trkpt lat="44.39148" lon="4.17608">
        <ele>211</ele>
        <time>2014-06-10T09:32:13Z</time>
      </trkpt>
      <trkpt lat="44.39154" lon="4.17586">
        <ele>209</ele>
        <time>2014-06-10T09:32:35Z</time>
      </trkpt>
      <trkpt lat="44.39157" lon="4.17569">
        <ele>209</ele>
        <time>2014-06-10T09:32:46Z</time>
      </trkpt>
      <trkpt lat="44.39151" lon="4.17552">
        <ele>207</ele>
        <time>2014-06-10T09:32:58Z</time>
      </trkpt>
      <trkpt lat="44.39143" lon="4.17541">
        <ele>207</ele>
        <time>2014-06-10T09:33:12Z</time>
      </trkpt>
      <trkpt lat="44.39139" lon="4.17537">
        <ele>208</ele>
        <time>2014-06-10T09:33:28Z</time>
      </trkpt>
      <trkpt lat="44.39136" lon="4.1753">
        <ele>208</ele>
        <time>2014-06-10T09:33:51Z</time>
      </trkpt>
      <trkpt lat="44.39124" lon="4.17528">
        <ele>211</ele>
        <time>2014-06-10T09:34:12Z</time>
      </trkpt>
      <trkpt lat="44.39111" lon="4.17525">
        <ele>214</ele>
        <time>2014-06-10T09:34:33Z</time>
      </trkpt>
      <trkpt lat="44.39107" lon="4.17513">
        <ele>214</ele>
        <time>2014-06-10T09:34:47Z</time>
      </trkpt>
      <trkpt lat="44.39099" lon="4.17493">
        <ele>212</ele>
        <time>2014-06-10T09:35:08Z</time>
      </trkpt>
      <trkpt lat="44.39108" lon="4.1747">
        <ele>211</ele>
        <time>2014-06-10T09:35:32Z</time>
      </trkpt>
      <trkpt lat="44.39119" lon="4.17454">
        <ele>212</ele>
        <time>2014-06-10T09:35:53Z</time>
      </trkpt>
      <trkpt lat="44.39124" lon="4.17454">
        <ele>212</ele>
        <time>2014-06-10T09:36:05Z</time>
      </trkpt>
      <trkpt lat="44.39128" lon="4.1745">
        <ele>213</ele>
        <time>2014-06-10T09:36:31Z</time>
      </trkpt>
      <trkpt lat="44.39123" lon="4.17441">
        <ele>213</ele>
        <time>2014-06-10T09:37:52Z</time>
      </trkpt>
      <trkpt lat="44.39122" lon="4.17437">
        <ele>214</ele>
        <time>2014-06-10T09:38:06Z</time>
      </trkpt>
      <trkpt lat="44.3912" lon="4.17426">
        <ele>215</ele>
        <time>2014-06-10T09:38:19Z</time>
      </trkpt>
      <trkpt lat="44.39118" lon="4.17418">
        <ele>215</ele>
        <time>2014-06-10T09:38:32Z</time>
      </trkpt>
      <trkpt lat="44.39107" lon="4.17393">
        <ele>215</ele>
        <time>2014-06-10T09:38:56Z</time>
      </trkpt>
      <trkpt lat="44.39129" lon="4.17398">
        <ele>215</ele>
        <time>2014-06-10T09:40:42Z</time>
      </trkpt>
      <trkpt lat="44.39139" lon="4.1739">
        <ele>215</ele>
        <time>2014-06-10T09:40:56Z</time>
      </trkpt>
      <trkpt lat="44.3915" lon="4.17378">
        <ele>215</ele>
        <time>2014-06-10T09:41:15Z</time>
      </trkpt>
      <trkpt lat="44.39163" lon="4.1737">
        <ele>214</ele>
        <time>2014-06-10T09:41:34Z</time>
      </trkpt>
      <trkpt lat="44.39181" lon="4.17362">
        <ele>215</ele>
        <time>2014-06-10T09:41:46Z</time>
      </trkpt>
      <trkpt lat="44.39192" lon="4.17366">
        <ele>216</ele>
        <time>2014-06-10T09:42:10Z</time>
      </trkpt>
      <trkpt lat="44.39198" lon="4.17361">
        <ele>215</ele>
        <time>2014-06-10T09:42:26Z</time>
      </trkpt>
      <trkpt lat="44.39209" lon="4.17361">
        <ele>216</ele>
        <time>2014-06-10T09:42:56Z</time>
      </trkpt>
      <trkpt lat="44.39218" lon="4.17357">
        <ele>216</ele>
        <time>2014-06-10T09:43:10Z</time>
      </trkpt>
      <trkpt lat="44.39229" lon="4.17344">
        <ele>216</ele>
        <time>2014-06-10T09:43:32Z</time>
      </trkpt>
      <trkpt lat="44.3924" lon="4.17331">
        <ele>215</ele>
        <time>2014-06-10T09:43:58Z</time>
      </trkpt>
      <trkpt lat="44.39252" lon="4.1732">
        <ele>214</ele>
        <time>2014-06-10T09:44:12Z</time>
      </trkpt>
      <trkpt lat="44.39262" lon="4.17308">
        <ele>214</ele>
        <time>2014-06-10T09:44:25Z</time>
      </trkpt>
      <trkpt lat="44.39271" lon="4.17302">
        <ele>214</ele>
        <time>2014-06-10T09:44:39Z</time>
      </trkpt>
      <trkpt lat="44.39276" lon="4.17297">
        <ele>215</ele>
        <time>2014-06-10T09:44:56Z</time>
      </trkpt>
      <trkpt lat="44.39286" lon="4.17296">
        <ele>216</ele>
        <time>2014-06-10T09:45:09Z</time>
      </trkpt>
      <trkpt lat="44.39296" lon="4.17298">
        <ele>217</ele>
        <time>2014-06-10T09:45:22Z</time>
      </trkpt>
      <trkpt lat="44.39305" lon="4.17294">
        <ele>218</ele>
        <time>2014-06-10T09:45:36Z</time>
      </trkpt>
      <trkpt lat="44.39313" lon="4.17295">
        <ele>219</ele>
        <time>2014-06-10T09:45:59Z</time>
      </trkpt>
      <trkpt lat="44.3933" lon="4.17294">
        <ele>222</ele>
        <time>2014-06-10T09:46:28Z</time>
      </trkpt>
      <trkpt lat="44.39339" lon="4.17292">
        <ele>222</ele>
        <time>2014-06-10T09:46:44Z</time>
      </trkpt>
      <trkpt lat="44.39351" lon="4.17293">
        <ele>219</ele>
        <time>2014-06-10T09:47:09Z</time>
      </trkpt>
      <trkpt lat="44.39353" lon="4.17283">
        <ele>219</ele>
        <time>2014-06-10T09:47:23Z</time>
      </trkpt>
      <trkpt lat="44.3936" lon="4.1728">
        <ele>218</ele>
        <time>2014-06-10T09:47:39Z</time>
      </trkpt>
      <trkpt lat="44.39363" lon="4.17271">
        <ele>221</ele>
        <time>2014-06-10T09:47:53Z</time>
      </trkpt>
      <trkpt lat="44.3937" lon="4.17266">
        <ele>222</ele>
        <time>2014-06-10T09:47:57Z</time>
      </trkpt>
      <trkpt lat="44.39379" lon="4.17261">
        <ele>222</ele>
        <time>2014-06-10T09:48:00Z</time>
      </trkpt>
      <trkpt lat="44.39385" lon="4.17247">
        <ele>222</ele>
        <time>2014-06-10T09:48:16Z</time>
      </trkpt>
      <trkpt lat="44.39396" lon="4.17235">
        <ele>223</ele>
        <time>2014-06-10T09:48:48Z</time>
      </trkpt>
      <trkpt lat="44.39402" lon="4.17225">
        <ele>224</ele>
        <time>2014-06-10T09:49:16Z</time>
      </trkpt>
      <trkpt lat="44.39411" lon="4.1721">
        <ele>225</ele>
        <time>2014-06-10T09:49:44Z</time>
      </trkpt>
      <trkpt lat="44.3942" lon="4.17195">
        <ele>225</ele>
        <time>2014-06-10T09:50:14Z</time>
      </trkpt>
      <trkpt lat="44.3943" lon="4.17182">
        <ele>226</ele>
        <time>2014-06-10T09:50:34Z</time>
      </trkpt>
      <trkpt lat="44.39446" lon="4.17187">
        <ele>227</ele>
        <time>2014-06-10T09:51:01Z</time>
      </trkpt>
      <trkpt lat="44.39457" lon="4.1719">
        <ele>227</ele>
        <time>2014-06-10T09:51:18Z</time>
      </trkpt>
      <trkpt lat="44.39466" lon="4.17186">
        <ele>228</ele>
        <time>2014-06-10T09:51:51Z</time>
      </trkpt>
      <trkpt lat="44.39471" lon="4.17177">
        <ele>229</ele>
        <time>2014-06-10T09:52:08Z</time>
      </trkpt>
      <trkpt lat="44.39485" lon="4.17177">
        <ele>229</ele>
        <time>2014-06-10T09:52:26Z</time>
      </trkpt>
      <trkpt lat="44.39493" lon="4.17165">
        <ele>229</ele>
        <time>2014-06-10T09:52:48Z</time>
      </trkpt>
      <trkpt lat="44.39503" lon="4.17154">
        <ele>229</ele>
        <time>2014-06-10T09:53:21Z</time>
      </trkpt>
      <trkpt lat="44.39515" lon="4.17138">
        <ele>229</ele>
        <time>2014-06-10T09:53:36Z</time>
      </trkpt>
      <trkpt lat="44.39526" lon="4.17134">
        <ele>229</ele>
        <time>2014-06-10T09:54:07Z</time>
      </trkpt>
      <trkpt lat="44.39538" lon="4.17121">
        <ele>229</ele>
        <time>2014-06-10T09:54:40Z</time>
      </trkpt>
      <trkpt lat="44.39548" lon="4.17109">
        <ele>229</ele>
        <time>2014-06-10T09:55:12Z</time>
      </trkpt>
      <trkpt lat="44.39559" lon="4.17104">
        <ele>229</ele>
        <time>2014-06-10T09:55:43Z</time>
      </trkpt>
      <trkpt lat="44.39571" lon="4.17102">
        <ele>228</ele>
        <time>2014-06-10T09:55:57Z</time>
      </trkpt>
      <trkpt lat="44.3958" lon="4.17093">
        <ele>227</ele>
        <time>2014-06-10T09:56:17Z</time>
      </trkpt>
      <trkpt lat="44.39586" lon="4.17087">
        <ele>225</ele>
        <time>2014-06-10T09:56:52Z</time>
      </trkpt>
      <trkpt lat="44.39592" lon="4.17085">
        <ele>223</ele>
        <time>2014-06-10T09:57:26Z</time>
      </trkpt>
      <trkpt lat="44.3959" lon="4.17061">
        <ele>222</ele>
        <time>2014-06-10T09:57:53Z</time>
      </trkpt>
      <trkpt lat="44.3959" lon="4.17048">
        <ele>222</ele>
        <time>2014-06-10T09:58:06Z</time>
      </trkpt>
      <trkpt lat="44.39586" lon="4.17032">
        <ele>221</ele>
        <time>2014-06-10T09:58:29Z</time>
      </trkpt>
      <trkpt lat="44.39575" lon="4.17032">
        <ele>223</ele>
        <time>2014-06-10T09:58:50Z</time>
      </trkpt>
      <trkpt lat="44.39571" lon="4.17033">
        <ele>224</ele>
        <time>2014-06-10T09:59:14Z</time>
      </trkpt>
      <trkpt lat="44.39572" lon="4.17033">
        <ele>225</ele>
        <time>2014-06-10T09:59:47Z</time>
      </trkpt>
      <trkpt lat="44.39577" lon="4.17031">
        <ele>223</ele>
        <time>2014-06-10T10:00:09Z</time>
      </trkpt>
      <trkpt lat="44.39588" lon="4.17029">
        <ele>222</ele>
        <time>2014-06-10T10:00:32Z</time>
      </trkpt>
      <trkpt lat="44.39601" lon="4.17025">
        <ele>222</ele>
        <time>2014-06-10T10:00:50Z</time>
      </trkpt>
      <trkpt lat="44.39625" lon="4.17018">
        <ele>223</ele>
        <time>2014-06-10T10:01:21Z</time>
      </trkpt>
      <trkpt lat="44.39645" lon="4.17023">
        <ele>222</ele>
        <time>2014-06-10T10:01:47Z</time>
      </trkpt>
      <trkpt lat="44.39665" lon="4.17026">
        <ele>222</ele>
        <time>2014-06-10T10:02:11Z</time>
      </trkpt>
      <trkpt lat="44.39689" lon="4.17036">
        <ele>222</ele>
        <time>2014-06-10T10:02:40Z</time>
      </trkpt>
      <trkpt lat="44.39709" lon="4.17037">
        <ele>225</ele>
        <time>2014-06-10T10:03:10Z</time>
      </trkpt>
      <trkpt lat="44.39726" lon="4.17032">
        <ele>227</ele>
        <time>2014-06-10T10:03:35Z</time>
      </trkpt>
      <trkpt lat="44.39751" lon="4.17035">
        <ele>228</ele>
        <time>2014-06-10T10:04:01Z</time>
      </trkpt>
      <trkpt lat="44.39755" lon="4.17036">
        <ele>228</ele>
        <time>2014-06-10T10:04:38Z</time>
      </trkpt>
      <trkpt lat="44.39758" lon="4.17034">
        <ele>230</ele>
        <time>2014-06-10T10:23:01Z</time>
      </trkpt>
      <trkpt lat="44.39765" lon="4.17033">
        <ele>231</ele>
        <time>2014-06-10T10:23:16Z</time>
      </trkpt>
      <trkpt lat="44.39779" lon="4.17031">
        <ele>232</ele>
        <time>2014-06-10T10:23:36Z</time>
      </trkpt>
      <trkpt lat="44.39789" lon="4.17037">
        <ele>233</ele>
        <time>2014-06-10T10:23:49Z</time>
      </trkpt>
      <trkpt lat="44.39803" lon="4.17051">
        <ele>235</ele>
        <time>2014-06-10T10:24:10Z</time>
      </trkpt>
      <trkpt lat="44.39824" lon="4.17065">
        <ele>238</ele>
        <time>2014-06-10T10:24:38Z</time>
      </trkpt>
      <trkpt lat="44.39825" lon="4.17065">
        <ele>238</ele>
        <time>2014-06-10T10:24:40Z</time>
      </trkpt>
      <trkpt lat="44.39834" lon="4.17069">
        <ele>239</ele>
        <time>2014-06-10T10:24:51Z</time>
      </trkpt>
      <trkpt lat="44.39867" lon="4.17085">
        <ele>240</ele>
        <time>2014-06-10T10:25:23Z</time>
      </trkpt>
      <trkpt lat="44.39891" lon="4.17097">
        <ele>240</ele>
        <time>2014-06-10T10:25:48Z</time>
      </trkpt>
      <trkpt lat="44.39924" lon="4.17113">
        <ele>238</ele>
        <time>2014-06-10T10:26:20Z</time>
      </trkpt>
      <trkpt lat="44.3993" lon="4.17115">
        <ele>238</ele>
        <time>2014-06-10T10:26:21Z</time>
      </trkpt>
      <trkpt lat="44.3995" lon="4.17132">
        <ele>236</ele>
        <time>2014-06-10T10:26:49Z</time>
      </trkpt>
      <trkpt lat="44.39965" lon="4.17142">
        <ele>235</ele>
        <time>2014-06-10T10:27:04Z</time>
      </trkpt>
      <trkpt lat="44.39981" lon="4.17145">
        <ele>234</ele>
        <time>2014-06-10T10:27:19Z</time>
      </trkpt>
      <trkpt lat="44.39988" lon="4.17145">
        <ele>233</ele>
        <time>2014-06-10T10:27:26Z</time>
      </trkpt>
      <trkpt lat="44.40002" lon="4.17143">
        <ele>231</ele>
        <time>2014-06-10T10:27:42Z</time>
      </trkpt>
      <trkpt lat="44.40009" lon="4.17142">
        <ele>231</ele>
        <time>2014-06-10T10:27:44Z</time>
      </trkpt>
      <trkpt lat="44.40036" lon="4.17149">
        <ele>229</ele>
        <time>2014-06-10T10:28:11Z</time>
      </trkpt>
      <trkpt lat="44.4006" lon="4.17158">
        <ele>227</ele>
        <time>2014-06-10T10:28:42Z</time>
      </trkpt>
      <trkpt lat="44.40078" lon="4.17159">
        <ele>227</ele>
        <time>2014-06-10T10:28:54Z</time>
      </trkpt>
      <trkpt lat="44.40094" lon="4.17151">
        <ele>226</ele>
        <time>2014-06-10T10:29:09Z</time>
      </trkpt>
      <trkpt lat="44.4011" lon="4.17149">
        <ele>226</ele>
        <time>2014-06-10T10:29:26Z</time>
      </trkpt>
      <trkpt lat="44.40116" lon="4.17159">
        <ele>225</ele>
        <time>2014-06-10T10:29:41Z</time>
      </trkpt>
      <trkpt lat="44.40119" lon="4.17167">
        <ele>225</ele>
        <time>2014-06-10T10:29:53Z</time>
      </trkpt>
      <trkpt lat="44.4012" lon="4.17186">
        <ele>226</ele>
        <time>2014-06-10T10:30:06Z</time>
      </trkpt>
      <trkpt lat="44.40125" lon="4.17207">
        <ele>227</ele>
        <time>2014-06-10T10:30:22Z</time>
      </trkpt>
      <trkpt lat="44.40131" lon="4.17241">
        <ele>227</ele>
        <time>2014-06-10T10:30:44Z</time>
      </trkpt>
      <trkpt lat="44.40137" lon="4.17292">
        <ele>227</ele>
        <time>2014-06-10T10:31:16Z</time>
      </trkpt>
      <trkpt lat="44.40141" lon="4.17309">
        <ele>227</ele>
        <time>2014-06-10T10:31:30Z</time>
      </trkpt>
      <trkpt lat="44.40144" lon="4.17313">
        <ele>228</ele>
        <time>2014-06-10T10:31:46Z</time>
      </trkpt>
      <trkpt lat="44.4015" lon="4.17315">
        <ele>228</ele>
        <time>2014-06-10T10:31:57Z</time>
      </trkpt>
      <trkpt lat="44.40163" lon="4.17317">
        <ele>228</ele>
        <time>2014-06-10T10:32:08Z</time>
      </trkpt>
      <trkpt lat="44.40173" lon="4.1732">
        <ele>228</ele>
        <time>2014-06-10T10:32:16Z</time>
      </trkpt>
      <trkpt lat="44.40205" lon="4.17333">
        <ele>230</ele>
        <time>2014-06-10T10:32:44Z</time>
      </trkpt>
      <trkpt lat="44.40216" lon="4.17342">
        <ele>230</ele>
        <time>2014-06-10T10:32:56Z</time>
      </trkpt>
      <trkpt lat="44.40228" lon="4.17364">
        <ele>230</ele>
        <time>2014-06-10T10:33:13Z</time>
      </trkpt>
      <trkpt lat="44.40233" lon="4.1738">
        <ele>230</ele>
        <time>2014-06-10T10:33:32Z</time>
      </trkpt>
      <trkpt lat="44.40231" lon="4.17383">
        <ele>229</ele>
        <time>2014-06-10T10:33:42Z</time>
      </trkpt>
      <trkpt lat="44.40229" lon="4.17402">
        <ele>228</ele>
        <time>2014-06-10T10:33:57Z</time>
      </trkpt>
      <trkpt lat="44.40235" lon="4.17419">
        <ele>228</ele>
        <time>2014-06-10T10:34:10Z</time>
      </trkpt>
      <trkpt lat="44.40246" lon="4.17435">
        <ele>230</ele>
        <time>2014-06-10T10:34:27Z</time>
      </trkpt>
      <trkpt lat="44.4026" lon="4.17459">
        <ele>229</ele>
        <time>2014-06-10T10:34:49Z</time>
      </trkpt>
      <trkpt lat="44.4026" lon="4.17468">
        <ele>228</ele>
        <time>2014-06-10T10:34:56Z</time>
      </trkpt>
      <trkpt lat="44.40277" lon="4.17503">
        <ele>228</ele>
        <time>2014-06-10T10:35:24Z</time>
      </trkpt>
      <trkpt lat="44.40286" lon="4.17525">
        <ele>228</ele>
        <time>2014-06-10T10:35:40Z</time>
      </trkpt>
      <trkpt lat="44.40298" lon="4.17548">
        <ele>228</ele>
        <time>2014-06-10T10:36:01Z</time>
      </trkpt>
      <trkpt lat="44.403" lon="4.17575">
        <ele>227</ele>
        <time>2014-06-10T10:36:18Z</time>
      </trkpt>
      <trkpt lat="44.40304" lon="4.17601">
        <ele>228</ele>
        <time>2014-06-10T10:36:37Z</time>
      </trkpt>
      <trkpt lat="44.40309" lon="4.17607">
        <ele>228</ele>
        <time>2014-06-10T10:36:52Z</time>
      </trkpt>
      <trkpt lat="44.40319" lon="4.17624">
        <ele>230</ele>
        <time>2014-06-10T10:37:08Z</time>
      </trkpt>
      <trkpt lat="44.40333" lon="4.17648">
        <ele>234</ele>
        <time>2014-06-10T10:37:35Z</time>
      </trkpt>
      <trkpt lat="44.40353" lon="4.17656">
        <ele>236</ele>
        <time>2014-06-10T10:38:04Z</time>
      </trkpt>
      <trkpt lat="44.40357" lon="4.17658">
        <ele>237</ele>
        <time>2014-06-10T10:38:12Z</time>
      </trkpt>
      <trkpt lat="44.40367" lon="4.17673">
        <ele>237</ele>
        <time>2014-06-10T10:38:26Z</time>
      </trkpt>
      <trkpt lat="44.40385" lon="4.17699">
        <ele>239</ele>
        <time>2014-06-10T10:38:51Z</time>
      </trkpt>
      <trkpt lat="44.40388" lon="4.17704">
        <ele>239</ele>
        <time>2014-06-10T10:39:04Z</time>
      </trkpt>
      <trkpt lat="44.40403" lon="4.1771">
        <ele>240</ele>
        <time>2014-06-10T10:39:20Z</time>
      </trkpt>
      <trkpt lat="44.40437" lon="4.17714">
        <ele>240</ele>
        <time>2014-06-10T10:39:54Z</time>
      </trkpt>
      <trkpt lat="44.40447" lon="4.1771">
        <ele>240</ele>
        <time>2014-06-10T10:40:16Z</time>
      </trkpt>
      <trkpt lat="44.40447" lon="4.17711">
        <ele>240</ele>
        <time>2014-06-10T10:40:43Z</time>
      </trkpt>
      <trkpt lat="44.40443" lon="4.17707">
        <ele>240</ele>
        <time>2014-06-10T10:41:27Z</time>
      </trkpt>
      <trkpt lat="44.40448" lon="4.17681">
        <ele>240</ele>
        <time>2014-06-10T10:41:51Z</time>
      </trkpt>
      <trkpt lat="44.40447" lon="4.17682">
        <ele>240</ele>
        <time>2014-06-10T10:42:06Z</time>
      </trkpt>
      <trkpt lat="44.40447" lon="4.17681">
        <ele>240</ele>
        <time>2014-06-10T10:42:47Z</time>
      </trkpt>
      <trkpt lat="44.40449" lon="4.1768">
        <ele>240</ele>
        <time>2014-06-10T10:43:09Z</time>
      </trkpt>
      <trkpt lat="44.40448" lon="4.17675">
        <ele>240</ele>
        <time>2014-06-10T10:43:37Z</time>
      </trkpt>
      <trkpt lat="44.40448" lon="4.17681">
        <ele>240</ele>
        <time>2014-06-10T10:44:00Z</time>
      </trkpt>
      <trkpt lat="44.40444" lon="4.17705">
        <ele>240</ele>
        <time>2014-06-10T10:44:15Z</time>
      </trkpt>
      <trkpt lat="44.40432" lon="4.17717">
        <ele>242</ele>
        <time>2014-06-10T10:44:30Z</time>
      </trkpt>
      <trkpt lat="44.40417" lon="4.17716">
        <ele>242</ele>
        <time>2014-06-10T10:44:45Z</time>
      </trkpt>
      <trkpt lat="44.40393" lon="4.1771">
        <ele>241</ele>
        <time>2014-06-10T10:45:06Z</time>
      </trkpt>
      <trkpt lat="44.40382" lon="4.17706">
        <ele>240</ele>
        <time>2014-06-10T10:45:15Z</time>
      </trkpt>
      <trkpt lat="44.4038" lon="4.17712">
        <ele>240</ele>
        <time>2014-06-10T10:45:20Z</time>
      </trkpt>
      <trkpt lat="44.4038" lon="4.17729">
        <ele>239</ele>
        <time>2014-06-10T10:45:34Z</time>
      </trkpt>
      <trkpt lat="44.40374" lon="4.17733">
        <ele>238</ele>
        <time>2014-06-10T10:45:45Z</time>
      </trkpt>
      <trkpt lat="44.40373" lon="4.17742">
        <ele>238</ele>
        <time>2014-06-10T10:45:54Z</time>
      </trkpt>
      <trkpt lat="44.40369" lon="4.17758">
        <ele>235</ele>
        <time>2014-06-10T10:46:12Z</time>
      </trkpt>
      <trkpt lat="44.4037" lon="4.17775">
        <ele>235</ele>
        <time>2014-06-10T10:46:29Z</time>
      </trkpt>
      <trkpt lat="44.40369" lon="4.17791">
        <ele>235</ele>
        <time>2014-06-10T10:46:46Z</time>
      </trkpt>
      <trkpt lat="44.40366" lon="4.17812">
        <ele>236</ele>
        <time>2014-06-10T10:47:06Z</time>
      </trkpt>
      <trkpt lat="44.40363" lon="4.17832">
        <ele>235</ele>
        <time>2014-06-10T10:47:23Z</time>
      </trkpt>
      <trkpt lat="44.40358" lon="4.17838">
        <ele>236</ele>
        <time>2014-06-10T10:47:29Z</time>
      </trkpt>
      <trkpt lat="44.40359" lon="4.17855">
        <ele>236</ele>
        <time>2014-06-10T10:47:39Z</time>
      </trkpt>
      <trkpt lat="44.4036" lon="4.17879">
        <ele>236</ele>
        <time>2014-06-10T10:47:56Z</time>
      </trkpt>
      <trkpt lat="44.40363" lon="4.17905">
        <ele>236</ele>
        <time>2014-06-10T10:48:13Z</time>
      </trkpt>
      <trkpt lat="44.40375" lon="4.17917">
        <ele>237</ele>
        <time>2014-06-10T10:48:26Z</time>
      </trkpt>
      <trkpt lat="44.40391" lon="4.17919">
        <ele>238</ele>
        <time>2014-06-10T10:48:42Z</time>
      </trkpt>
      <trkpt lat="44.40393" lon="4.17921">
        <ele>238</ele>
        <time>2014-06-10T10:48:45Z</time>
      </trkpt>
      <trkpt lat="44.40396" lon="4.17929">
        <ele>242</ele>
        <time>2014-06-10T10:48:50Z</time>
      </trkpt>
      <trkpt lat="44.40397" lon="4.17929">
        <ele>238</ele>
        <time>2014-06-10T10:48:51Z</time>
      </trkpt>
      <trkpt lat="44.40397" lon="4.17947">
        <ele>237</ele>
        <time>2014-06-10T10:49:05Z</time>
      </trkpt>
      <trkpt lat="44.40397" lon="4.17964">
        <ele>237</ele>
        <time>2014-06-10T10:49:16Z</time>
      </trkpt>
      <trkpt lat="44.404" lon="4.17993">
        <ele>238</ele>
        <time>2014-06-10T10:49:35Z</time>
      </trkpt>
      <trkpt lat="44.40402" lon="4.18023">
        <ele>240</ele>
        <time>2014-06-10T10:50:01Z</time>
      </trkpt>
      <trkpt lat="44.40402" lon="4.18046">
        <ele>244</ele>
        <time>2014-06-10T10:50:28Z</time>
      </trkpt>
      <trkpt lat="44.40397" lon="4.18062">
        <ele>247</ele>
        <time>2014-06-10T10:50:54Z</time>
      </trkpt>
      <trkpt lat="44.40395" lon="4.18066">
        <ele>247</ele>
        <time>2014-06-10T10:51:09Z</time>
      </trkpt>
      <trkpt lat="44.40393" lon="4.18077">
        <ele>248</ele>
        <time>2014-06-10T10:51:22Z</time>
      </trkpt>
      <trkpt lat="44.40386" lon="4.18093">
        <ele>252</ele>
        <time>2014-06-10T10:51:46Z</time>
      </trkpt>
      <trkpt lat="44.40376" lon="4.18113">
        <ele>252</ele>
        <time>2014-06-10T10:52:09Z</time>
      </trkpt>
      <trkpt lat="44.40366" lon="4.18145">
        <ele>252</ele>
        <time>2014-06-10T10:52:36Z</time>
      </trkpt>
      <trkpt lat="44.40365" lon="4.18153">
        <ele>252</ele>
        <time>2014-06-10T10:52:49Z</time>
      </trkpt>
      <trkpt lat="44.40363" lon="4.18168">
        <ele>250</ele>
        <time>2014-06-10T10:53:03Z</time>
      </trkpt>
      <trkpt lat="44.40359" lon="4.18197">
        <ele>247</ele>
        <time>2014-06-10T10:53:25Z</time>
      </trkpt>
      <trkpt lat="44.40358" lon="4.18204">
        <ele>245</ele>
        <time>2014-06-10T10:53:37Z</time>
      </trkpt>
      <trkpt lat="44.40354" lon="4.18218">
        <ele>241</ele>
        <time>2014-06-10T10:54:02Z</time>
      </trkpt>
      <trkpt lat="44.40355" lon="4.18237">
        <ele>240</ele>
        <time>2014-06-10T10:54:16Z</time>
      </trkpt>
      <trkpt lat="44.40354" lon="4.18239">
        <ele>240</ele>
        <time>2014-06-10T10:54:18Z</time>
      </trkpt>
      <trkpt lat="44.40355" lon="4.18271">
        <ele>239</ele>
        <time>2014-06-10T10:54:39Z</time>
      </trkpt>
      <trkpt lat="44.40355" lon="4.18299">
        <ele>238</ele>
        <time>2014-06-10T10:55:01Z</time>
      </trkpt>
      <trkpt lat="44.40356" lon="4.18307">
        <ele>238</ele>
        <time>2014-06-10T10:55:16Z</time>
      </trkpt>
      <trkpt lat="44.40358" lon="4.18311">
        <ele>239</ele>
        <time>2014-06-10T10:55:49Z</time>
      </trkpt>
      <trkpt lat="44.40362" lon="4.18317">
        <ele>239</ele>
        <time>2014-06-10T10:55:58Z</time>
      </trkpt>
      <trkpt lat="44.40373" lon="4.18322">
        <ele>239</ele>
        <time>2014-06-10T10:56:12Z</time>
      </trkpt>
      <trkpt lat="44.40388" lon="4.18322">
        <ele>240</ele>
        <time>2014-06-10T10:56:27Z</time>
      </trkpt>
      <trkpt lat="44.40391" lon="4.18332">
        <ele>240</ele>
        <time>2014-06-10T10:56:38Z</time>
      </trkpt>
      <trkpt lat="44.40396" lon="4.18351">
        <ele>241</ele>
        <time>2014-06-10T10:56:55Z</time>
      </trkpt>
      <trkpt lat="44.40403" lon="4.18369">
        <ele>240</ele>
        <time>2014-06-10T10:57:12Z</time>
      </trkpt>
      <trkpt lat="44.40402" lon="4.18383">
        <ele>240</ele>
        <time>2014-06-10T10:57:26Z</time>
      </trkpt>
      <trkpt lat="44.40402" lon="4.184">
        <ele>239</ele>
        <time>2014-06-10T10:57:41Z</time>
      </trkpt>
      <trkpt lat="44.40402" lon="4.18406">
        <ele>238</ele>
        <time>2014-06-10T10:57:46Z</time>
      </trkpt>
      <trkpt lat="44.40392" lon="4.1844">
        <ele>238</ele>
        <time>2014-06-10T10:58:12Z</time>
      </trkpt>
      <trkpt lat="44.40389" lon="4.18453">
        <ele>238</ele>
        <time>2014-06-10T10:58:26Z</time>
      </trkpt>
      <trkpt lat="44.40388" lon="4.18466">
        <ele>237</ele>
        <time>2014-06-10T10:58:39Z</time>
      </trkpt>
      <trkpt lat="44.40389" lon="4.1848">
        <ele>235</ele>
        <time>2014-06-10T10:58:52Z</time>
      </trkpt>
      <trkpt lat="44.40393" lon="4.18515">
        <ele>234</ele>
        <time>2014-06-10T10:59:20Z</time>
      </trkpt>
      <trkpt lat="44.40397" lon="4.18546">
        <ele>236</ele>
        <time>2014-06-10T10:59:47Z</time>
      </trkpt>
      <trkpt lat="44.40405" lon="4.1857">
        <ele>236</ele>
        <time>2014-06-10T11:00:15Z</time>
      </trkpt>
      <trkpt lat="44.40408" lon="4.18582">
        <ele>236</ele>
        <time>2014-06-10T11:00:31Z</time>
      </trkpt>
      <trkpt lat="44.40407" lon="4.18586">
        <ele>236</ele>
        <time>2014-06-10T11:00:35Z</time>
      </trkpt>
      <trkpt lat="44.40406" lon="4.18598">
        <ele>236</ele>
        <time>2014-06-10T11:00:45Z</time>
      </trkpt>
      <trkpt lat="44.40403" lon="4.18625">
        <ele>235</ele>
        <time>2014-06-10T11:01:07Z</time>
      </trkpt>
      <trkpt lat="44.40399" lon="4.18637">
        <ele>233</ele>
        <time>2014-06-10T11:01:21Z</time>
      </trkpt>
      <trkpt lat="44.40399" lon="4.18638">
        <ele>233</ele>
        <time>2014-06-10T11:01:23Z</time>
      </trkpt>
      <trkpt lat="44.40392" lon="4.18644">
        <ele>233</ele>
        <time>2014-06-10T11:01:35Z</time>
      </trkpt>
      <trkpt lat="44.4039" lon="4.18653">
        <ele>231</ele>
        <time>2014-06-10T11:01:47Z</time>
      </trkpt>
      <trkpt lat="44.40397" lon="4.18663">
        <ele>229</ele>
        <time>2014-06-10T11:01:59Z</time>
      </trkpt>
      <trkpt lat="44.40397" lon="4.18666">
        <ele>229</ele>
        <time>2014-06-10T11:02:01Z</time>
      </trkpt>
      <trkpt lat="44.40389" lon="4.18673">
        <ele>229</ele>
        <time>2014-06-10T11:02:14Z</time>
      </trkpt>
      <trkpt lat="44.4038" lon="4.18694">
        <ele>225</ele>
        <time>2014-06-10T11:02:40Z</time>
      </trkpt>
      <trkpt lat="44.40375" lon="4.18715">
        <ele>223</ele>
        <time>2014-06-10T11:03:01Z</time>
      </trkpt>
      <trkpt lat="44.40375" lon="4.18718">
        <ele>221</ele>
        <time>2014-06-10T11:03:14Z</time>
      </trkpt>
      <trkpt lat="44.40371" lon="4.18728">
        <ele>219</ele>
        <time>2014-06-10T11:03:25Z</time>
      </trkpt>
      <trkpt lat="44.40367" lon="4.18747">
        <ele>218</ele>
        <time>2014-06-10T11:04:00Z</time>
      </trkpt>
      <trkpt lat="44.40366" lon="4.18756">
        <ele>216</ele>
        <time>2014-06-10T11:04:36Z</time>
      </trkpt>
      <trkpt lat="44.40364" lon="4.18771">
        <ele>214</ele>
        <time>2014-06-10T11:05:01Z</time>
      </trkpt>
      <trkpt lat="44.40369" lon="4.18775">
        <ele>212</ele>
        <time>2014-06-10T11:05:14Z</time>
      </trkpt>
      <trkpt lat="44.40368" lon="4.18785">
        <ele>211</ele>
        <time>2014-06-10T11:05:29Z</time>
      </trkpt>
      <trkpt lat="44.40368" lon="4.18792">
        <ele>209</ele>
        <time>2014-06-10T11:05:42Z</time>
      </trkpt>
      <trkpt lat="44.40369" lon="4.18803">
        <ele>207</ele>
        <time>2014-06-10T11:06:04Z</time>
      </trkpt>
      <trkpt lat="44.40368" lon="4.18816">
        <ele>204</ele>
        <time>2014-06-10T11:06:24Z</time>
      </trkpt>
      <trkpt lat="44.4036" lon="4.18833">
        <ele>203</ele>
        <time>2014-06-10T11:07:07Z</time>
      </trkpt>
      <trkpt lat="44.40351" lon="4.18829">
        <ele>206</ele>
        <time>2014-06-10T11:07:30Z</time>
      </trkpt>
      <trkpt lat="44.40342" lon="4.18828">
        <ele>208</ele>
        <time>2014-06-10T11:07:54Z</time>
      </trkpt>
      <trkpt lat="44.40331" lon="4.18832">
        <ele>209</ele>
        <time>2014-06-10T11:08:06Z</time>
      </trkpt>
      <trkpt lat="44.40323" lon="4.18833">
        <ele>212</ele>
        <time>2014-06-10T11:08:31Z</time>
      </trkpt>
      <trkpt lat="44.40317" lon="4.18835">
        <ele>214</ele>
        <time>2014-06-10T11:08:59Z</time>
      </trkpt>
      <trkpt lat="44.40306" lon="4.18834">
        <ele>216</ele>
        <time>2014-06-10T11:09:21Z</time>
      </trkpt>
      <trkpt lat="44.40289" lon="4.18834">
        <ele>217</ele>
        <time>2014-06-10T11:09:42Z</time>
      </trkpt>
      <trkpt lat="44.40275" lon="4.18848">
        <ele>218</ele>
        <time>2014-06-10T11:10:03Z</time>
      </trkpt>
      <trkpt lat="44.40268" lon="4.18859">
        <ele>217</ele>
        <time>2014-06-10T11:10:25Z</time>
      </trkpt>
      <trkpt lat="44.40263" lon="4.18867">
        <ele>216</ele>
        <time>2014-06-10T11:10:33Z</time>
      </trkpt>
      <trkpt lat="44.40257" lon="4.18881">
        <ele>215</ele>
        <time>2014-06-10T11:10:46Z</time>
      </trkpt>
      <trkpt lat="44.40247" lon="4.18907">
        <ele>215</ele>
        <time>2014-06-10T11:11:09Z</time>
      </trkpt>
      <trkpt lat="44.40244" lon="4.18915">
        <ele>216</ele>
        <time>2014-06-10T11:11:21Z</time>
      </trkpt>
      <trkpt lat="44.40243" lon="4.18936">
        <ele>217</ele>
        <time>2014-06-10T11:11:46Z</time>
      </trkpt>
      <trkpt lat="44.40235" lon="4.18947">
        <ele>218</ele>
        <time>2014-06-10T11:11:58Z</time>
      </trkpt>
      <trkpt lat="44.40234" lon="4.18957">
        <ele>220</ele>
        <time>2014-06-10T11:12:11Z</time>
      </trkpt>
      <trkpt lat="44.40221" lon="4.18969">
        <ele>221</ele>
        <time>2014-06-10T11:12:36Z</time>
      </trkpt>
      <trkpt lat="44.40215" lon="4.18973">
        <ele>223</ele>
        <time>2014-06-10T11:12:49Z</time>
      </trkpt>
      <trkpt lat="44.40214" lon="4.18973">
        <ele>223</ele>
        <time>2014-06-10T11:12:50Z</time>
      </trkpt>
      <trkpt lat="44.40206" lon="4.18978">
        <ele>224</ele>
        <time>2014-06-10T11:13:02Z</time>
      </trkpt>
      <trkpt lat="44.40202" lon="4.18993">
        <ele>226</ele>
        <time>2014-06-10T11:13:27Z</time>
      </trkpt>
      <trkpt lat="44.402" lon="4.1901">
        <ele>227</ele>
        <time>2014-06-10T11:13:50Z</time>
      </trkpt>
      <trkpt lat="44.40194" lon="4.19024">
        <ele>227</ele>
        <time>2014-06-10T11:14:28Z</time>
      </trkpt>
      <trkpt lat="44.40191" lon="4.19025">
        <ele>227</ele>
        <time>2014-06-10T11:15:20Z</time>
      </trkpt>
      <trkpt lat="44.4019" lon="4.19024">
        <ele>227</ele>
        <time>2014-06-10T11:16:52Z</time>
      </trkpt>
      <trkpt lat="44.40183" lon="4.19021">
        <ele>231</ele>
        <time>2014-06-10T11:19:42Z</time>
      </trkpt>
      <trkpt lat="44.40177" lon="4.19025">
        <ele>233</ele>
        <time>2014-06-10T11:20:06Z</time>
      </trkpt>
      <trkpt lat="44.40173" lon="4.19032">
        <ele>234</ele>
        <time>2014-06-10T11:20:17Z</time>
      </trkpt>
      <trkpt lat="44.40164" lon="4.19043">
        <ele>234</ele>
        <time>2014-06-10T11:20:42Z</time>
      </trkpt>
      <trkpt lat="44.40158" lon="4.19049">
        <ele>232</ele>
        <time>2014-06-10T11:21:04Z</time>
      </trkpt>
      <trkpt lat="44.40147" lon="4.19051">
        <ele>231</ele>
        <time>2014-06-10T11:21:25Z</time>
      </trkpt>
      <trkpt lat="44.4014" lon="4.19051">
        <ele>230</ele>
        <time>2014-06-10T11:21:38Z</time>
      </trkpt>
      <trkpt lat="44.40129" lon="4.19063">
        <ele>229</ele>
        <time>2014-06-10T11:21:56Z</time>
      </trkpt>
      <trkpt lat="44.40121" lon="4.19073">
        <ele>228</ele>
        <time>2014-06-10T11:22:10Z</time>
      </trkpt>
      <trkpt lat="44.40118" lon="4.19078">
        <ele>227</ele>
        <time>2014-06-10T11:22:41Z</time>
      </trkpt>
      <trkpt lat="44.40113" lon="4.19087">
        <ele>225</ele>
        <time>2014-06-10T11:23:09Z</time>
      </trkpt>
      <trkpt lat="44.40112" lon="4.19088">
        <ele>225</ele>
        <time>2014-06-10T11:23:11Z</time>
      </trkpt>
      <trkpt lat="44.40104" lon="4.1909">
        <ele>224</ele>
        <time>2014-06-10T11:23:25Z</time>
      </trkpt>
      <trkpt lat="44.40096" lon="4.19097">
        <ele>223</ele>
        <time>2014-06-10T11:23:39Z</time>
      </trkpt>
      <trkpt lat="44.40094" lon="4.19101">
        <ele>222</ele>
        <time>2014-06-10T11:23:52Z</time>
      </trkpt>
      <trkpt lat="44.40078" lon="4.19108">
        <ele>220</ele>
        <time>2014-06-10T11:24:18Z</time>
      </trkpt>
      <trkpt lat="44.40076" lon="4.19109">
        <ele>219</ele>
        <time>2014-06-10T11:24:29Z</time>
      </trkpt>
      <trkpt lat="44.40062" lon="4.19114">
        <ele>218</ele>
        <time>2014-06-10T11:25:14Z</time>
      </trkpt>
      <trkpt lat="44.40045" lon="4.19115">
        <ele>217</ele>
        <time>2014-06-10T11:25:36Z</time>
      </trkpt>
      <trkpt lat="44.4004" lon="4.19121">
        <ele>216</ele>
        <time>2014-06-10T11:25:45Z</time>
      </trkpt>
      <trkpt lat="44.40031" lon="4.19126">
        <ele>216</ele>
        <time>2014-06-10T11:25:57Z</time>
      </trkpt>
      <trkpt lat="44.40021" lon="4.19127">
        <ele>216</ele>
        <time>2014-06-10T11:26:08Z</time>
      </trkpt>
      <trkpt lat="44.40015" lon="4.19131">
        <ele>216</ele>
        <time>2014-06-10T11:26:14Z</time>
      </trkpt>
      <trkpt lat="44.40005" lon="4.19122">
        <ele>216</ele>
        <time>2014-06-10T11:26:28Z</time>
      </trkpt>
      <trkpt lat="44.39998" lon="4.19122">
        <ele>215</ele>
        <time>2014-06-10T11:26:38Z</time>
      </trkpt>
      <trkpt lat="44.39996" lon="4.19125">
        <ele>215</ele>
        <time>2014-06-10T11:26:42Z</time>
      </trkpt>
      <trkpt lat="44.39989" lon="4.19129">
        <ele>215</ele>
        <time>2014-06-10T11:26:48Z</time>
      </trkpt>
      <trkpt lat="44.3998" lon="4.19124">
        <ele>214</ele>
        <time>2014-06-10T11:27:02Z</time>
      </trkpt>
      <trkpt lat="44.39978" lon="4.19123">
        <ele>215</ele>
        <time>2014-06-10T11:27:14Z</time>
      </trkpt>
      <trkpt lat="44.39975" lon="4.19122">
        <ele>215</ele>
        <time>2014-06-10T11:27:39Z</time>
      </trkpt>
      <trkpt lat="44.39957" lon="4.19123">
        <ele>215</ele>
        <time>2014-06-10T11:28:01Z</time>
      </trkpt>
      <trkpt lat="44.39927" lon="4.19128">
        <ele>214</ele>
        <time>2014-06-10T11:28:34Z</time>
      </trkpt>
      <trkpt lat="44.39924" lon="4.1913">
        <ele>213</ele>
        <time>2014-06-10T11:28:45Z</time>
      </trkpt>
      <trkpt lat="44.39918" lon="4.19137">
        <ele>209</ele>
        <time>2014-06-10T11:29:42Z</time>
      </trkpt>
      <trkpt lat="44.39907" lon="4.19145">
        <ele>207</ele>
        <time>2014-06-10T11:29:56Z</time>
      </trkpt>
      <trkpt lat="44.39886" lon="4.19156">
        <ele>204</ele>
        <time>2014-06-10T11:30:26Z</time>
      </trkpt>
      <trkpt lat="44.39876" lon="4.19164">
        <ele>202</ele>
        <time>2014-06-10T11:30:44Z</time>
      </trkpt>
      <trkpt lat="44.39865" lon="4.19171">
        <ele>201</ele>
        <time>2014-06-10T11:30:59Z</time>
      </trkpt>
      <trkpt lat="44.39849" lon="4.19178">
        <ele>200</ele>
        <time>2014-06-10T11:31:21Z</time>
      </trkpt>
      <trkpt lat="44.39844" lon="4.19185">
        <ele>199</ele>
        <time>2014-06-10T11:31:27Z</time>
      </trkpt>
      <trkpt lat="44.39835" lon="4.19189">
        <ele>198</ele>
        <time>2014-06-10T11:31:38Z</time>
      </trkpt>
      <trkpt lat="44.39824" lon="4.19193">
        <ele>198</ele>
        <time>2014-06-10T11:31:50Z</time>
      </trkpt>
      <trkpt lat="44.39814" lon="4.19195">
        <ele>197</ele>
        <time>2014-06-10T11:32:04Z</time>
      </trkpt>
      <trkpt lat="44.39804" lon="4.19196">
        <ele>196</ele>
        <time>2014-06-10T11:32:16Z</time>
      </trkpt>
      <trkpt lat="44.39785" lon="4.19195">
        <ele>196</ele>
        <time>2014-06-10T11:32:34Z</time>
      </trkpt>
      <trkpt lat="44.39752" lon="4.19191">
        <ele>195</ele>
        <time>2014-06-10T11:33:02Z</time>
      </trkpt>
      <trkpt lat="44.39745" lon="4.19184">
        <ele>195</ele>
        <time>2014-06-10T11:33:13Z</time>
      </trkpt>
      <trkpt lat="44.39726" lon="4.19174">
        <ele>195</ele>
        <time>2014-06-10T11:33:29Z</time>
      </trkpt>
      <trkpt lat="44.39715" lon="4.19162">
        <ele>195</ele>
        <time>2014-06-10T11:33:42Z</time>
      </trkpt>
      <trkpt lat="44.39696" lon="4.19143">
        <ele>196</ele>
        <time>2014-06-10T11:34:02Z</time>
      </trkpt>
      <trkpt lat="44.39682" lon="4.19129">
        <ele>197</ele>
        <time>2014-06-10T11:34:20Z</time>
      </trkpt>
      <trkpt lat="44.3967" lon="4.19116">
        <ele>198</ele>
        <time>2014-06-10T11:34:36Z</time>
      </trkpt>
      <trkpt lat="44.39659" lon="4.19098">
        <ele>198</ele>
        <time>2014-06-10T11:34:54Z</time>
      </trkpt>
      <trkpt lat="44.39646" lon="4.19098">
        <ele>200</ele>
        <time>2014-06-10T11:35:11Z</time>
      </trkpt>
      <trkpt lat="44.39645" lon="4.19098">
        <ele>200</ele>
        <time>2014-06-10T11:35:13Z</time>
      </trkpt>
      <trkpt lat="44.39634" lon="4.19108">
        <ele>201</ele>
        <time>2014-06-10T11:35:27Z</time>
      </trkpt>
      <trkpt lat="44.39615" lon="4.1912">
        <ele>202</ele>
        <time>2014-06-10T11:35:51Z</time>
      </trkpt>
      <trkpt lat="44.39606" lon="4.19121">
        <ele>202</ele>
        <time>2014-06-10T11:36:02Z</time>
      </trkpt>
      <trkpt lat="44.39585" lon="4.19119">
        <ele>204</ele>
        <time>2014-06-10T11:36:29Z</time>
      </trkpt>
      <trkpt lat="44.39584" lon="4.19117">
        <ele>205</ele>
        <time>2014-06-10T11:36:46Z</time>
      </trkpt>
      <trkpt lat="44.39585" lon="4.19113">
        <ele>205</ele>
        <time>2014-06-10T11:37:31Z</time>
      </trkpt>
      <trkpt lat="44.39591" lon="4.19096">
        <ele>207</ele>
        <time>2014-06-10T11:38:02Z</time>
      </trkpt>
      <trkpt lat="44.39592" lon="4.19075">
        <ele>208</ele>
        <time>2014-06-10T11:38:15Z</time>
      </trkpt>
      <trkpt lat="44.39584" lon="4.19032">
        <ele>209</ele>
        <time>2014-06-10T11:38:45Z</time>
      </trkpt>
      <trkpt lat="44.39574" lon="4.18992">
        <ele>210</ele>
        <time>2014-06-10T11:39:12Z</time>
      </trkpt>
      <trkpt lat="44.39562" lon="4.1896">
        <ele>211</ele>
        <time>2014-06-10T11:39:34Z</time>
      </trkpt>
      <trkpt lat="44.39551" lon="4.18931">
        <ele>212</ele>
        <time>2014-06-10T11:39:55Z</time>
      </trkpt>
      <trkpt lat="44.39546" lon="4.18893">
        <ele>213</ele>
        <time>2014-06-10T11:40:21Z</time>
      </trkpt>
      <trkpt lat="44.39542" lon="4.18871">
        <ele>215</ele>
        <time>2014-06-10T11:40:37Z</time>
      </trkpt>
      <trkpt lat="44.39539" lon="4.18864">
        <ele>215</ele>
        <time>2014-06-10T11:40:42Z</time>
      </trkpt>
      <trkpt lat="44.39539" lon="4.18832">
        <ele>216</ele>
        <time>2014-06-10T11:41:04Z</time>
      </trkpt>
      <trkpt lat="44.3954" lon="4.18825">
        <ele>216</ele>
        <time>2014-06-10T11:41:09Z</time>
      </trkpt>
      <trkpt lat="44.39547" lon="4.18806">
        <ele>216</ele>
        <time>2014-06-10T11:41:24Z</time>
      </trkpt>
      <trkpt lat="44.39564" lon="4.18762">
        <ele>214</ele>
        <time>2014-06-10T11:42:01Z</time>
      </trkpt>
      <trkpt lat="44.39573" lon="4.18737">
        <ele>211</ele>
        <time>2014-06-10T11:42:23Z</time>
      </trkpt>
      <trkpt lat="44.39576" lon="4.1872">
        <ele>210</ele>
        <time>2014-06-10T11:42:37Z</time>
      </trkpt>
      <trkpt lat="44.39577" lon="4.18715">
        <ele>209</ele>
        <time>2014-06-10T11:42:42Z</time>
      </trkpt>
      <trkpt lat="44.39574" lon="4.18686">
        <ele>209</ele>
        <time>2014-06-10T11:43:00Z</time>
      </trkpt>
      <trkpt lat="44.39576" lon="4.18666">
        <ele>209</ele>
        <time>2014-06-10T11:43:14Z</time>
      </trkpt>
      <trkpt lat="44.39577" lon="4.18663">
        <ele>209</ele>
        <time>2014-06-10T11:43:17Z</time>
      </trkpt>
      <trkpt lat="44.39577" lon="4.18646">
        <ele>209</ele>
        <time>2014-06-10T11:43:28Z</time>
      </trkpt>
      <trkpt lat="44.3958" lon="4.18625">
        <ele>208</ele>
        <time>2014-06-10T11:43:42Z</time>
      </trkpt>
      <trkpt lat="44.39591" lon="4.18588">
        <ele>207</ele>
        <time>2014-06-10T11:44:08Z</time>
      </trkpt>
      <trkpt lat="44.39593" lon="4.18575">
        <ele>206</ele>
        <time>2014-06-10T11:44:16Z</time>
      </trkpt>
      <trkpt lat="44.39603" lon="4.18547">
        <ele>206</ele>
        <time>2014-06-10T11:44:40Z</time>
      </trkpt>
      <trkpt lat="44.39609" lon="4.1852">
        <ele>208</ele>
        <time>2014-06-10T11:45:01Z</time>
      </trkpt>
      <trkpt lat="44.39604" lon="4.18512">
        <ele>209</ele>
        <time>2014-06-10T11:45:07Z</time>
      </trkpt>
      <trkpt lat="44.39604" lon="4.18491">
        <ele>210</ele>
        <time>2014-06-10T11:45:20Z</time>
      </trkpt>
      <trkpt lat="44.39602" lon="4.18474">
        <ele>212</ele>
        <time>2014-06-10T11:45:36Z</time>
      </trkpt>
      <trkpt lat="44.39608" lon="4.18457">
        <ele>212</ele>
        <time>2014-06-10T11:45:49Z</time>
      </trkpt>
      <trkpt lat="44.39614" lon="4.18428">
        <ele>213</ele>
        <time>2014-06-10T11:46:09Z</time>
      </trkpt>
      <trkpt lat="44.39622" lon="4.18389">
        <ele>213</ele>
        <time>2014-06-10T11:46:36Z</time>
      </trkpt>
      <trkpt lat="44.39629" lon="4.18353">
        <ele>214</ele>
        <time>2014-06-10T11:47:02Z</time>
      </trkpt>
      <trkpt lat="44.39631" lon="4.18322">
        <ele>215</ele>
        <time>2014-06-10T11:47:28Z</time>
      </trkpt>
      <trkpt lat="44.39632" lon="4.18319">
        <ele>216</ele>
        <time>2014-06-10T11:47:45Z</time>
      </trkpt>
      <trkpt lat="44.39632" lon="4.18309">
        <ele>216</ele>
        <time>2014-06-10T11:48:09Z</time>
      </trkpt>
      <trkpt lat="44.39641" lon="4.18273">
        <ele>216</ele>
        <time>2014-06-10T11:48:37Z</time>
      </trkpt>
      <trkpt lat="44.39642" lon="4.18265">
        <ele>215</ele>
        <time>2014-06-10T11:48:50Z</time>
      </trkpt>
      <trkpt lat="44.39644" lon="4.18266">
        <ele>216</ele>
        <time>2014-06-10T11:49:03Z</time>
      </trkpt>
      <trkpt lat="44.39648" lon="4.18252">
        <ele>216</ele>
        <time>2014-06-10T11:49:15Z</time>
      </trkpt>
      <trkpt lat="44.39656" lon="4.18218">
        <ele>218</ele>
        <time>2014-06-10T11:49:41Z</time>
      </trkpt>
      <trkpt lat="44.3966" lon="4.18209">
        <ele>218</ele>
        <time>2014-06-10T11:49:49Z</time>
      </trkpt>
      <trkpt lat="44.39674" lon="4.18174">
        <ele>218</ele>
        <time>2014-06-10T11:50:17Z</time>
      </trkpt>
      <trkpt lat="44.39685" lon="4.18134">
        <ele>219</ele>
        <time>2014-06-10T11:50:47Z</time>
      </trkpt>
      <trkpt lat="44.39691" lon="4.1811">
        <ele>217</ele>
        <time>2014-06-10T11:51:07Z</time>
      </trkpt>
      <trkpt lat="44.39693" lon="4.18081">
        <ele>215</ele>
        <time>2014-06-10T11:51:25Z</time>
      </trkpt>
      <trkpt lat="44.39694" lon="4.18078">
        <ele>215</ele>
        <time>2014-06-10T11:51:28Z</time>
      </trkpt>
      <trkpt lat="44.39695" lon="4.18053">
        <ele>214</ele>
        <time>2014-06-10T11:51:45Z</time>
      </trkpt>
      <trkpt lat="44.39692" lon="4.1803">
        <ele>214</ele>
        <time>2014-06-10T11:52:01Z</time>
      </trkpt>
      <trkpt lat="44.39682" lon="4.18013">
        <ele>213</ele>
        <time>2014-06-10T11:52:16Z</time>
      </trkpt>
      <trkpt lat="44.39679" lon="4.17994">
        <ele>212</ele>
        <time>2014-06-10T11:52:29Z</time>
      </trkpt>
      <trkpt lat="44.39678" lon="4.17966">
        <ele>209</ele>
        <time>2014-06-10T11:52:56Z</time>
      </trkpt>
      <trkpt lat="44.39676" lon="4.17956">
        <ele>209</ele>
        <time>2014-06-10T11:53:03Z</time>
      </trkpt>
      <trkpt lat="44.39669" lon="4.17943">
        <ele>209</ele>
        <time>2014-06-10T11:53:15Z</time>
      </trkpt>
      <trkpt lat="44.39658" lon="4.17916">
        <ele>210</ele>
        <time>2014-06-10T11:53:38Z</time>
      </trkpt>
      <trkpt lat="44.39655" lon="4.17896">
        <ele>211</ele>
        <time>2014-06-10T11:53:52Z</time>
      </trkpt>
      <trkpt lat="44.39653" lon="4.17891">
        <ele>211</ele>
        <time>2014-06-10T11:54:13Z</time>
      </trkpt>
      <trkpt lat="44.39643" lon="4.17884">
        <ele>209</ele>
        <time>2014-06-10T11:54:38Z</time>
      </trkpt>
      <trkpt lat="44.39623" lon="4.17873">
        <ele>207</ele>
        <time>2014-06-10T11:55:01Z</time>
      </trkpt>
      <trkpt lat="44.39604" lon="4.17861">
        <ele>207</ele>
        <time>2014-06-10T11:55:25Z</time>
      </trkpt>
      <trkpt lat="44.39592" lon="4.1785">
        <ele>207</ele>
        <time>2014-06-10T11:55:41Z</time>
      </trkpt>
      <trkpt lat="44.3957" lon="4.17841">
        <ele>206</ele>
        <time>2014-06-10T11:56:03Z</time>
      </trkpt>
      <trkpt lat="44.39544" lon="4.17821">
        <ele>206</ele>
        <time>2014-06-10T11:56:32Z</time>
      </trkpt>
      <trkpt lat="44.39524" lon="4.17812">
        <ele>206</ele>
        <time>2014-06-10T11:56:47Z</time>
      </trkpt>
      <trkpt lat="44.39507" lon="4.17802">
        <ele>205</ele>
        <time>2014-06-10T11:57:02Z</time>
      </trkpt>
      <trkpt lat="44.39489" lon="4.17801">
        <ele>205</ele>
        <time>2014-06-10T11:57:16Z</time>
      </trkpt>
      <trkpt lat="44.39478" lon="4.17799">
        <ele>205</ele>
        <time>2014-06-10T11:57:29Z</time>
      </trkpt>
      <trkpt lat="44.39477" lon="4.17799">
        <ele>204</ele>
        <time>2014-06-10T12:02:25Z</time>
      </trkpt>
      <trkpt lat="44.3947" lon="4.17809">
        <ele>205</ele>
        <time>2014-06-10T12:03:49Z</time>
      </trkpt>
      <trkpt lat="44.39461" lon="4.17817">
        <ele>205</ele>
        <time>2014-06-10T12:04:17Z</time>
      </trkpt>
      <trkpt lat="44.3946" lon="4.17832">
        <ele>204</ele>
        <time>2014-06-10T12:04:50Z</time>
      </trkpt>
      <trkpt lat="44.39459" lon="4.17847">
        <ele>204</ele>
        <time>2014-06-10T12:05:03Z</time>
      </trkpt>
      <trkpt lat="44.39458" lon="4.17852">
        <ele>199</ele>
        <time>2014-06-10T12:05:07Z</time>
      </trkpt>
      <trkpt lat="44.39458" lon="4.17853">
        <ele>210</ele>
        <time>2014-06-10T12:05:08Z</time>
      </trkpt>
      <trkpt lat="44.39458" lon="4.17854">
        <ele>205</ele>
        <time>2014-06-10T12:05:09Z</time>
      </trkpt>
      <trkpt lat="44.3945" lon="4.17859">
        <ele>210</ele>
        <time>2014-06-10T12:05:32Z</time>
      </trkpt>
      <trkpt lat="44.39447" lon="4.17861">
        <ele>204</ele>
        <time>2014-06-10T12:05:51Z</time>
      </trkpt>
      <trkpt lat="44.39443" lon="4.17861">
        <ele>205</ele>
        <time>2014-06-10T12:06:27Z</time>
      </trkpt>
      <trkpt lat="44.39437" lon="4.17857">
        <ele>205</ele>
        <time>2014-06-10T12:06:39Z</time>
      </trkpt>
      <trkpt lat="44.3942" lon="4.17851">
        <ele>204</ele>
        <time>2014-06-10T12:07:00Z</time>
      </trkpt>
      <trkpt lat="44.39405" lon="4.17827">
        <ele>204</ele>
        <time>2014-06-10T12:07:19Z</time>
      </trkpt>
      <trkpt lat="44.39396" lon="4.17823">
        <ele>205</ele>
        <time>2014-06-10T12:07:33Z</time>
      </trkpt>
      <trkpt lat="44.3938" lon="4.17816">
        <ele>205</ele>
        <time>2014-06-10T12:07:50Z</time>
      </trkpt>
      <trkpt lat="44.39367" lon="4.17824">
        <ele>204</ele>
        <time>2014-06-10T12:08:04Z</time>
      </trkpt>
      <trkpt lat="44.39357" lon="4.17809">
        <ele>204</ele>
        <time>2014-06-10T12:08:18Z</time>
      </trkpt>
      <trkpt lat="44.39342" lon="4.17793">
        <ele>205</ele>
        <time>2014-06-10T12:08:49Z</time>
      </trkpt>
      <trkpt lat="44.39332" lon="4.17779">
        <ele>207</ele>
        <time>2014-06-10T12:09:13Z</time>
      </trkpt>
      <trkpt lat="44.39332" lon="4.17759">
        <ele>208</ele>
        <time>2014-06-10T12:09:35Z</time>
      </trkpt>
      <trkpt lat="44.39334" lon="4.17739">
        <ele>208</ele>
        <time>2014-06-10T12:09:58Z</time>
      </trkpt>
      <trkpt lat="44.39341" lon="4.17733">
        <ele>208</ele>
        <time>2014-06-10T12:10:11Z</time>
      </trkpt>
      <trkpt lat="44.39329" lon="4.1773">
        <ele>209</ele>
        <time>2014-06-10T12:10:26Z</time>
      </trkpt>
      <trkpt lat="44.39314" lon="4.17728">
        <ele>209</ele>
        <time>2014-06-10T12:10:52Z</time>
      </trkpt>
      <trkpt lat="44.39315" lon="4.17748">
        <ele>209</ele>
        <time>2014-06-10T12:14:57Z</time>
      </trkpt>
      <trkpt lat="44.39311" lon="4.17759">
        <ele>208</ele>
        <time>2014-06-10T12:15:10Z</time>
      </trkpt>
      <trkpt lat="44.39302" lon="4.1777">
        <ele>208</ele>
        <time>2014-06-10T12:15:18Z</time>
      </trkpt>
      <trkpt lat="44.39292" lon="4.17782">
        <ele>209</ele>
        <time>2014-06-10T12:15:32Z</time>
      </trkpt>
      <trkpt lat="44.39282" lon="4.1779">
        <ele>213</ele>
        <time>2014-06-10T12:15:59Z</time>
      </trkpt>
      <trkpt lat="44.39264" lon="4.178">
        <ele>215</ele>
        <time>2014-06-10T12:16:26Z</time>
      </trkpt>
      <trkpt lat="44.3926" lon="4.17797">
        <ele>216</ele>
        <time>2014-06-10T12:16:38Z</time>
      </trkpt>
      <trkpt lat="44.39245" lon="4.17798">
        <ele>216</ele>
        <time>2014-06-10T12:16:52Z</time>
      </trkpt>
      <trkpt lat="44.3924" lon="4.178">
        <ele>215</ele>
        <time>2014-06-10T12:17:02Z</time>
      </trkpt>
      <trkpt lat="44.39228" lon="4.17805">
        <ele>215</ele>
        <time>2014-06-10T12:17:15Z</time>
      </trkpt>
      <trkpt lat="44.39215" lon="4.1781">
        <ele>212</ele>
        <time>2014-06-10T12:17:39Z</time>
      </trkpt>
      <trkpt lat="44.39206" lon="4.17821">
        <ele>212</ele>
        <time>2014-06-10T12:17:54Z</time>
      </trkpt>
      <trkpt lat="44.392" lon="4.17838">
        <ele>212</ele>
        <time>2014-06-10T12:18:22Z</time>
      </trkpt>
      <trkpt lat="44.39203" lon="4.17841">
        <ele>211</ele>
        <time>2014-06-10T12:18:38Z</time>
      </trkpt>
      <trkpt lat="44.39209" lon="4.1786">
        <ele>207</ele>
        <time>2014-06-10T12:19:17Z</time>
      </trkpt>
      <trkpt lat="44.39196" lon="4.17862">
        <ele>206</ele>
        <time>2014-06-10T12:19:29Z</time>
      </trkpt>
      <trkpt lat="44.39202" lon="4.17866">
        <ele>208</ele>
        <time>2014-06-10T12:20:43Z</time>
      </trkpt>
      <trkpt lat="44.39205" lon="4.17881">
        <ele>206</ele>
        <time>2014-06-10T12:21:05Z</time>
      </trkpt>
      <trkpt lat="44.39201" lon="4.17884">
        <ele>204</ele>
        <time>2014-06-10T12:21:17Z</time>
      </trkpt>
      <trkpt lat="44.39197" lon="4.17881">
        <ele>204</ele>
        <time>2014-06-10T12:21:31Z</time>
      </trkpt>
      <trkpt lat="44.39189" lon="4.17893">
        <ele>205</ele>
        <time>2014-06-10T12:21:46Z</time>
      </trkpt>
      <trkpt lat="44.39185" lon="4.17893">
        <ele>205</ele>
        <time>2014-06-10T12:22:00Z</time>
      </trkpt>
      <trkpt lat="44.3918" lon="4.17902">
        <ele>205</ele>
        <time>2014-06-10T12:22:34Z</time>
      </trkpt>
      <trkpt lat="44.39173" lon="4.17902">
        <ele>207</ele>
        <time>2014-06-10T12:32:00Z</time>
      </trkpt>
      <trkpt lat="44.3917" lon="4.17906">
        <ele>207</ele>
        <time>2014-06-10T12:32:09Z</time>
      </trkpt>
      <trkpt lat="44.39158" lon="4.17906">
        <ele>206</ele>
        <time>2014-06-10T12:32:23Z</time>
      </trkpt>
      <trkpt lat="44.3915" lon="4.17912">
        <ele>207</ele>
        <time>2014-06-10T12:32:37Z</time>
      </trkpt>
      <trkpt lat="44.39145" lon="4.17917">
        <ele>207</ele>
        <time>2014-06-10T12:32:46Z</time>
      </trkpt>
      <trkpt lat="44.39138" lon="4.17937">
        <ele>208</ele>
        <time>2014-06-10T12:33:15Z</time>
      </trkpt>
      <trkpt lat="44.39135" lon="4.17952">
        <ele>206</ele>
        <time>2014-06-10T12:33:29Z</time>
      </trkpt>
      <trkpt lat="44.39133" lon="4.17958">
        <ele>206</ele>
        <time>2014-06-10T12:33:41Z</time>
      </trkpt>
      <trkpt lat="44.39131" lon="4.17959">
        <ele>206</ele>
        <time>2014-06-10T12:33:57Z</time>
      </trkpt>
      <trkpt lat="44.39133" lon="4.17966">
        <ele>206</ele>
        <time>2014-06-10T12:34:28Z</time>
      </trkpt>
      <trkpt lat="44.39137" lon="4.17988">
        <ele>206</ele>
        <time>2014-06-10T12:34:53Z</time>
      </trkpt>
      <trkpt lat="44.39135" lon="4.17992">
        <ele>207</ele>
        <time>2014-06-10T12:35:09Z</time>
      </trkpt>
      <trkpt lat="44.3913" lon="4.18001">
        <ele>210</ele>
        <time>2014-06-10T12:35:25Z</time>
      </trkpt>
      <trkpt lat="44.39129" lon="4.18013">
        <ele>215</ele>
        <time>2014-06-10T12:35:36Z</time>
      </trkpt>
      <trkpt lat="44.39129" lon="4.18014">
        <ele>211</ele>
        <time>2014-06-10T12:35:37Z</time>
      </trkpt>
      <trkpt lat="44.39134" lon="4.18019">
        <ele>210</ele>
        <time>2014-06-10T12:35:47Z</time>
      </trkpt>
      <trkpt lat="44.39147" lon="4.18025">
        <ele>211</ele>
        <time>2014-06-10T12:35:59Z</time>
      </trkpt>
      <trkpt lat="44.39149" lon="4.18034">
        <ele>211</ele>
        <time>2014-06-10T12:36:12Z</time>
      </trkpt>
      <trkpt lat="44.39146" lon="4.18041">
        <ele>211</ele>
        <time>2014-06-10T12:36:17Z</time>
      </trkpt>
      <trkpt lat="44.39134" lon="4.18039">
        <ele>213</ele>
        <time>2014-06-10T12:36:38Z</time>
      </trkpt>
      <trkpt lat="44.39122" lon="4.18037">
        <ele>215</ele>
        <time>2014-06-10T12:36:51Z</time>
      </trkpt>
      <trkpt lat="44.39117" lon="4.18034">
        <ele>217</ele>
        <time>2014-06-10T12:37:03Z</time>
      </trkpt>
      <trkpt lat="44.39103" lon="4.18027">
        <ele>220</ele>
        <time>2014-06-10T12:37:27Z</time>
      </trkpt>
      <trkpt lat="44.39099" lon="4.18012">
        <ele>220</ele>
        <time>2014-06-10T12:37:39Z</time>
      </trkpt>
      <trkpt lat="44.39093" lon="4.17987">
        <ele>220</ele>
        <time>2014-06-10T12:38:02Z</time>
      </trkpt>
      <trkpt lat="44.39088" lon="4.17961">
        <ele>221</ele>
        <time>2014-06-10T12:38:25Z</time>
      </trkpt>
      <trkpt lat="44.39085" lon="4.17952">
        <ele>222</ele>
        <time>2014-06-10T12:38:38Z</time>
      </trkpt>
      <trkpt lat="44.39073" lon="4.17939">
        <ele>224</ele>
        <time>2014-06-10T12:38:56Z</time>
      </trkpt>
      <trkpt lat="44.39063" lon="4.17916">
        <ele>223</ele>
        <time>2014-06-10T12:39:19Z</time>
      </trkpt>
      <trkpt lat="44.39042" lon="4.17907">
        <ele>224</ele>
        <time>2014-06-10T12:39:41Z</time>
      </trkpt>
      <trkpt lat="44.39028" lon="4.17911">
        <ele>226</ele>
        <time>2014-06-10T12:40:00Z</time>
      </trkpt>
      <trkpt lat="44.39028" lon="4.17916">
        <ele>226</ele>
        <time>2014-06-10T12:40:12Z</time>
      </trkpt>
      <trkpt lat="44.39022" lon="4.17929">
        <ele>227</ele>
        <time>2014-06-10T12:40:39Z</time>
      </trkpt>
      <trkpt lat="44.39015" lon="4.17944">
        <ele>230</ele>
        <time>2014-06-10T12:41:04Z</time>
      </trkpt>
      <trkpt lat="44.39013" lon="4.1795">
        <ele>233</ele>
        <time>2014-06-10T12:41:17Z</time>
      </trkpt>
      <trkpt lat="44.39014" lon="4.17966">
        <ele>233</ele>
        <time>2014-06-10T12:41:31Z</time>
      </trkpt>
      <trkpt lat="44.39013" lon="4.17969">
        <ele>233</ele>
        <time>2014-06-10T12:41:44Z</time>
      </trkpt>
      <trkpt lat="44.39022" lon="4.17974">
        <ele>234</ele>
        <time>2014-06-10T12:43:22Z</time>
      </trkpt>
      <trkpt lat="44.39024" lon="4.17976">
        <ele>234</ele>
        <time>2014-06-10T12:43:25Z</time>
      </trkpt>
      <trkpt lat="44.39035" lon="4.17998">
        <ele>233</ele>
        <time>2014-06-10T12:43:44Z</time>
      </trkpt>
      <trkpt lat="44.39035" lon="4.18005">
        <ele>234</ele>
        <time>2014-06-10T12:43:49Z</time>
      </trkpt>
      <trkpt lat="44.39033" lon="4.18029">
        <ele>235</ele>
        <time>2014-06-10T12:44:20Z</time>
      </trkpt>
      <trkpt lat="44.39031" lon="4.18037">
        <ele>235</ele>
        <time>2014-06-10T12:44:30Z</time>
      </trkpt>
      <trkpt lat="44.3903" lon="4.18044">
        <ele>235</ele>
        <time>2014-06-10T12:44:35Z</time>
      </trkpt>
      <trkpt lat="44.39023" lon="4.18057">
        <ele>236</ele>
        <time>2014-06-10T12:44:45Z</time>
      </trkpt>
      <trkpt lat="44.39011" lon="4.18091">
        <ele>235</ele>
        <time>2014-06-10T12:45:11Z</time>
      </trkpt>
      <trkpt lat="44.39007" lon="4.18108">
        <ele>234</ele>
        <time>2014-06-10T12:45:23Z</time>
      </trkpt>
      <trkpt lat="44.39004" lon="4.18128">
        <ele>233</ele>
        <time>2014-06-10T12:45:37Z</time>
      </trkpt>
      <trkpt lat="44.38996" lon="4.18137">
        <ele>232</ele>
        <time>2014-06-10T12:45:46Z</time>
      </trkpt>
      <trkpt lat="44.38989" lon="4.18141">
        <ele>231</ele>
        <time>2014-06-10T12:45:53Z</time>
      </trkpt>
      <trkpt lat="44.38957" lon="4.18168">
        <ele>229</ele>
        <time>2014-06-10T12:46:24Z</time>
      </trkpt>
      <trkpt lat="44.38953" lon="4.18175">
        <ele>228</ele>
        <time>2014-06-10T12:46:29Z</time>
      </trkpt>
      <trkpt lat="44.3894" lon="4.18189">
        <ele>227</ele>
        <time>2014-06-10T12:46:45Z</time>
      </trkpt>
      <trkpt lat="44.38938" lon="4.18195">
        <ele>227</ele>
        <time>2014-06-10T12:46:49Z</time>
      </trkpt>
      <trkpt lat="44.38931" lon="4.18218">
        <ele>225</ele>
        <time>2014-06-10T12:47:05Z</time>
      </trkpt>
      <trkpt lat="44.38922" lon="4.18233">
        <ele>224</ele>
        <time>2014-06-10T12:47:20Z</time>
      </trkpt>
      <trkpt lat="44.38911" lon="4.18257">
        <ele>223</ele>
        <time>2014-06-10T12:47:37Z</time>
      </trkpt>
      <trkpt lat="44.38897" lon="4.18277">
        <ele>221</ele>
        <time>2014-06-10T12:47:55Z</time>
      </trkpt>
      <trkpt lat="44.38895" lon="4.18278">
        <ele>221</ele>
        <time>2014-06-10T12:47:57Z</time>
      </trkpt>
      <trkpt lat="44.38886" lon="4.18291">
        <ele>221</ele>
        <time>2014-06-10T12:48:08Z</time>
      </trkpt>
      <trkpt lat="44.38863" lon="4.18308">
        <ele>220</ele>
        <time>2014-06-10T12:48:29Z</time>
      </trkpt>
      <trkpt lat="44.3884" lon="4.18332">
        <ele>224</ele>
        <time>2014-06-10T12:48:53Z</time>
      </trkpt>
      <trkpt lat="44.38838" lon="4.18332">
        <ele>220</ele>
        <time>2014-06-10T12:48:54Z</time>
      </trkpt>
      <trkpt lat="44.38828" lon="4.18343">
        <ele>219</ele>
        <time>2014-06-10T12:49:05Z</time>
      </trkpt>
      <trkpt lat="44.38818" lon="4.18357">
        <ele>220</ele>
        <time>2014-06-10T12:49:21Z</time>
      </trkpt>
      <trkpt lat="44.3882" lon="4.18363">
        <ele>221</ele>
        <time>2014-06-10T12:49:26Z</time>
      </trkpt>
      <trkpt lat="44.38822" lon="4.18381">
        <ele>221</ele>
        <time>2014-06-10T12:49:36Z</time>
      </trkpt>
      <trkpt lat="44.38823" lon="4.18403">
        <ele>221</ele>
        <time>2014-06-10T12:49:51Z</time>
      </trkpt>
      <trkpt lat="44.38823" lon="4.18424">
        <ele>222</ele>
        <time>2014-06-10T12:50:04Z</time>
      </trkpt>
      <trkpt lat="44.38821" lon="4.18446">
        <ele>222</ele>
        <time>2014-06-10T12:50:17Z</time>
      </trkpt>
      <trkpt lat="44.38818" lon="4.18467">
        <ele>222</ele>
        <time>2014-06-10T12:50:31Z</time>
      </trkpt>
      <trkpt lat="44.38814" lon="4.18479">
        <ele>222</ele>
        <time>2014-06-10T12:50:46Z</time>
      </trkpt>
      <trkpt lat="44.38806" lon="4.18503">
        <ele>221</ele>
        <time>2014-06-10T12:51:02Z</time>
      </trkpt>
      <trkpt lat="44.38798" lon="4.18524">
        <ele>222</ele>
        <time>2014-06-10T12:51:16Z</time>
      </trkpt>
      <trkpt lat="44.38784" lon="4.18541">
        <ele>222</ele>
        <time>2014-06-10T12:51:33Z</time>
      </trkpt>
      <trkpt lat="44.38776" lon="4.18543">
        <ele>222</ele>
        <time>2014-06-10T12:51:39Z</time>
      </trkpt>
      <trkpt lat="44.3877" lon="4.18546">
        <ele>216</ele>
        <time>2014-06-10T12:51:45Z</time>
      </trkpt>
      <trkpt lat="44.38769" lon="4.18547">
        <ele>225</ele>
        <time>2014-06-10T12:51:46Z</time>
      </trkpt>
      <trkpt lat="44.38768" lon="4.18548">
        <ele>221</ele>
        <time>2014-06-10T12:51:47Z</time>
      </trkpt>
      <trkpt lat="44.38754" lon="4.18551">
        <ele>221</ele>
        <time>2014-06-10T12:52:03Z</time>
      </trkpt>
      <trkpt lat="44.38734" lon="4.18561">
        <ele>221</ele>
        <time>2014-06-10T12:52:21Z</time>
      </trkpt>
      <trkpt lat="44.38727" lon="4.18569">
        <ele>220</ele>
        <time>2014-06-10T12:52:29Z</time>
      </trkpt>
      <trkpt lat="44.38692" lon="4.18618">
        <ele>218</ele>
        <time>2014-06-10T12:53:12Z</time>
      </trkpt>
      <trkpt lat="44.38662" lon="4.1866">
        <ele>216</ele>
        <time>2014-06-10T12:53:48Z</time>
      </trkpt>
      <trkpt lat="44.38635" lon="4.18705">
        <ele>214</ele>
        <time>2014-06-10T12:54:23Z</time>
      </trkpt>
      <trkpt lat="44.38596" lon="4.18764">
        <ele>211</ele>
        <time>2014-06-10T12:55:13Z</time>
      </trkpt>
      <trkpt lat="44.38578" lon="4.18782">
        <ele>210</ele>
        <time>2014-06-10T12:55:31Z</time>
      </trkpt>
      <trkpt lat="44.3854" lon="4.18822">
        <ele>206</ele>
        <time>2014-06-10T12:56:11Z</time>
      </trkpt>
      <trkpt lat="44.38522" lon="4.18845">
        <ele>205</ele>
        <time>2014-06-10T12:56:32Z</time>
      </trkpt>
      <trkpt lat="44.38497" lon="4.18888">
        <ele>203</ele>
        <time>2014-06-10T12:57:07Z</time>
      </trkpt>
      <trkpt lat="44.38479" lon="4.18899">
        <ele>202</ele>
        <time>2014-06-10T12:57:24Z</time>
      </trkpt>
      <trkpt lat="44.38446" lon="4.18932">
        <ele>199</ele>
        <time>2014-06-10T12:57:58Z</time>
      </trkpt>
      <trkpt lat="44.38412" lon="4.1896">
        <ele>197</ele>
        <time>2014-06-10T12:58:31Z</time>
      </trkpt>
      <trkpt lat="44.38393" lon="4.18971">
        <ele>195</ele>
        <time>2014-06-10T12:58:48Z</time>
      </trkpt>
      <trkpt lat="44.38379" lon="4.1898">
        <ele>193</ele>
        <time>2014-06-10T12:59:02Z</time>
      </trkpt>
      <trkpt lat="44.38363" lon="4.18988">
        <ele>191</ele>
        <time>2014-06-10T12:59:17Z</time>
      </trkpt>
      <trkpt lat="44.3833" lon="4.19004">
        <ele>188</ele>
        <time>2014-06-10T12:59:54Z</time>
      </trkpt>
      <trkpt lat="44.3833" lon="4.19004">
        <ele>187</ele>
        <time>2014-06-10T13:00:09Z</time>
      </trkpt>
      <trkpt lat="44.38329" lon="4.19003">
        <ele>187</ele>
        <time>2014-06-10T13:00:35Z</time>
      </trkpt>
      <trkpt lat="44.38321" lon="4.19008">
        <ele>187</ele>
        <time>2014-06-10T13:00:49Z</time>
      </trkpt>
      <trkpt lat="44.38309" lon="4.19021">
        <ele>186</ele>
        <time>2014-06-10T13:01:03Z</time>
      </trkpt>
      <trkpt lat="44.38292" lon="4.19037">
        <ele>185</ele>
        <time>2014-06-10T13:01:22Z</time>
      </trkpt>
      <trkpt lat="44.3828" lon="4.19057">
        <ele>183</ele>
        <time>2014-06-10T13:01:39Z</time>
      </trkpt>
      <trkpt lat="44.38269" lon="4.19076">
        <ele>181</ele>
        <time>2014-06-10T13:01:59Z</time>
      </trkpt>
      <trkpt lat="44.38262" lon="4.19095">
        <ele>180</ele>
        <time>2014-06-10T13:02:14Z</time>
      </trkpt>
      <trkpt lat="44.38247" lon="4.19123">
        <ele>178</ele>
        <time>2014-06-10T13:02:37Z</time>
      </trkpt>
      <trkpt lat="44.38246" lon="4.19126">
        <ele>178</ele>
        <time>2014-06-10T13:02:39Z</time>
      </trkpt>
      <trkpt lat="44.38225" lon="4.19162">
        <ele>174</ele>
        <time>2014-06-10T13:03:12Z</time>
      </trkpt>
      <trkpt lat="44.38208" lon="4.19187">
        <ele>171</ele>
        <time>2014-06-10T13:03:38Z</time>
      </trkpt>
      <trkpt lat="44.38191" lon="4.19199">
        <ele>169</ele>
        <time>2014-06-10T13:03:56Z</time>
      </trkpt>
      <trkpt lat="44.38178" lon="4.19211">
        <ele>167</ele>
        <time>2014-06-10T13:04:10Z</time>
      </trkpt>
      <trkpt lat="44.3815" lon="4.19237">
        <ele>165</ele>
        <time>2014-06-10T13:04:40Z</time>
      </trkpt>
      <trkpt lat="44.38122" lon="4.19267">
        <ele>162</ele>
        <time>2014-06-10T13:05:12Z</time>
      </trkpt>
      <trkpt lat="44.3809" lon="4.19293">
        <ele>160</ele>
        <time>2014-06-10T13:05:43Z</time>
      </trkpt>
      <trkpt lat="44.38084" lon="4.19323">
        <ele>160</ele>
        <time>2014-06-10T13:06:02Z</time>
      </trkpt>
      <trkpt lat="44.38075" lon="4.19346">
        <ele>158</ele>
        <time>2014-06-10T13:06:18Z</time>
      </trkpt>
      <trkpt lat="44.38057" lon="4.19372">
        <ele>156</ele>
        <time>2014-06-10T13:06:39Z</time>
      </trkpt>
      <trkpt lat="44.38024" lon="4.19402">
        <ele>155</ele>
        <time>2014-06-10T13:07:12Z</time>
      </trkpt>
      <trkpt lat="44.38013" lon="4.1942">
        <ele>154</ele>
        <time>2014-06-10T13:07:29Z</time>
      </trkpt>
      <trkpt lat="44.38012" lon="4.19424">
        <ele>154</ele>
        <time>2014-06-10T13:07:32Z</time>
      </trkpt>
      <trkpt lat="44.38006" lon="4.19436">
        <ele>153</ele>
        <time>2014-06-10T13:07:42Z</time>
      </trkpt>
      <trkpt lat="44.37984" lon="4.19426">
        <ele>153</ele>
        <time>2014-06-10T13:08:01Z</time>
      </trkpt>
      <trkpt lat="44.37957" lon="4.19428">
        <ele>151</ele>
        <time>2014-06-10T13:08:25Z</time>
      </trkpt>
      <trkpt lat="44.3794" lon="4.19448">
        <ele>151</ele>
        <time>2014-06-10T13:08:44Z</time>
      </trkpt>
      <trkpt lat="44.37928" lon="4.19464">
        <ele>150</ele>
        <time>2014-06-10T13:08:59Z</time>
      </trkpt>
      <trkpt lat="44.37908" lon="4.19506">
        <ele>149</ele>
        <time>2014-06-10T13:09:31Z</time>
      </trkpt>
      <trkpt lat="44.37893" lon="4.19523">
        <ele>149</ele>
        <time>2014-06-10T13:09:47Z</time>
      </trkpt>
      <trkpt lat="44.37876" lon="4.19535">
        <ele>146</ele>
        <time>2014-06-10T13:10:04Z</time>
      </trkpt>
      <trkpt lat="44.37866" lon="4.19544">
        <ele>146</ele>
        <time>2014-06-10T13:10:13Z</time>
      </trkpt>
      <trkpt lat="44.37842" lon="4.1957">
        <ele>144</ele>
        <time>2014-06-10T13:10:41Z</time>
      </trkpt>
      <trkpt lat="44.37816" lon="4.19597">
        <ele>143</ele>
        <time>2014-06-10T13:11:09Z</time>
      </trkpt>
      <trkpt lat="44.37794" lon="4.19621">
        <ele>142</ele>
        <time>2014-06-10T13:11:33Z</time>
      </trkpt>
      <trkpt lat="44.37768" lon="4.19652">
        <ele>141</ele>
        <time>2014-06-10T13:12:02Z</time>
      </trkpt>
      <trkpt lat="44.37728" lon="4.19709">
        <ele>140</ele>
        <time>2014-06-10T13:12:52Z</time>
      </trkpt>
      <trkpt lat="44.37724" lon="4.1971">
        <ele>140</ele>
        <time>2014-06-10T13:13:04Z</time>
      </trkpt>
      <trkpt lat="44.37724" lon="4.19711">
        <ele>140</ele>
        <time>2014-06-10T13:13:27Z</time>
      </trkpt>
      <trkpt lat="44.3771" lon="4.1973">
        <ele>140</ele>
        <time>2014-06-10T13:13:44Z</time>
      </trkpt>
      <trkpt lat="44.3769" lon="4.19762">
        <ele>141</ele>
        <time>2014-06-10T13:14:09Z</time>
      </trkpt>
      <trkpt lat="44.37656" lon="4.19805">
        <ele>141</ele>
        <time>2014-06-10T13:14:46Z</time>
      </trkpt>
      <trkpt lat="44.37635" lon="4.19819">
        <ele>141</ele>
        <time>2014-06-10T13:15:05Z</time>
      </trkpt>
      <trkpt lat="44.37616" lon="4.19823">
        <ele>140</ele>
        <time>2014-06-10T13:15:22Z</time>
      </trkpt>
      <trkpt lat="44.37599" lon="4.19837">
        <ele>140</ele>
        <time>2014-06-10T13:15:54Z</time>
      </trkpt>
      <trkpt lat="44.37599" lon="4.19836">
        <ele>140</ele>
        <time>2014-06-10T13:16:04Z</time>
      </trkpt>
      <trkpt lat="44.37598" lon="4.19837">
        <ele>139</ele>
        <time>2014-06-10T13:16:31Z</time>
      </trkpt>
    </trkseg>
  </trk>
</gpx>